Observation data for Guadalupe Mtns Park on 09/11/2017      Previous  Date  Next       Current Mesonet Observations  Soil Data  Daily Summary Page  Observations in Plain Language
KGU1 110500Z 02004KT 18/06 A3035 RMK A01 T01770063  RH  048%=      5-min Rain = 0
KGU1 110501Z 02005KT 18/06 A3035 RMK A01 T01760063  RH  048%=      5-min Rain = 0
KGU1 110502Z 03004KT 18/06 A3035 RMK A01 T01760063  RH  048%=      5-min Rain = 0
KGU1 110503Z 03004KT 18/06 A3035 RMK A01 T01750063  RH  048%=      5-min Rain = 0
KGU1 110504Z 03006KT 18/06 A3035 RMK A01 T01750063  RH  048%=      5-min Rain = 0
KGU1 110505Z 02005KT 18/06 A3035 RMK A01 T01760063  RH  048%=      5-min Rain = 0
KGU1 110506Z 02006KT 18/06 A3035 RMK A01 T01750063  RH  048%=      5-min Rain = 0
KGU1 110507Z 02006KT 18/06 A3035 RMK A01 T01760063  RH  048%=      5-min Rain = 0
KGU1 110508Z 01005KT 18/06 A3035 RMK A01 T01760063  RH  048%=      5-min Rain = 0
KGU1 110509Z 01006KT 18/06 A3035 RMK A01 T01750063  RH  048%=      5-min Rain = 0
KGU1 110510Z 02005KT 18/06 A3035 RMK A01 T01750063  RH  048%=      5-min Rain = 0
KGU1 110511Z 01004KT 18/06 A3035 RMK A01 T01750063  RH  049%=      5-min Rain = 0
KGU1 110512Z 01005KT 17/06 A3035 RMK A01 T01740064  RH  049%=      5-min Rain = 0
KGU1 110513Z 02006KT 17/06 A3035 RMK A01 T01740063  RH  049%=      5-min Rain = 0
KGU1 110514Z 01006KT 17/06 A3035 RMK A01 T01730063  RH  049%=      5-min Rain = 0
KGU1 110515Z 01006KT 17/06 A3035 RMK A01 T01740063  RH  049%=      5-min Rain = 0
KGU1 110516Z 02005KT 17/06 A3035 RMK A01 T01740063  RH  049%=      5-min Rain = 0
KGU1 110517Z 01005KT 17/06 A3035 RMK A01 T01740063  RH  048%=      5-min Rain = 0
KGU1 110518Z 02005KT 17/06 A3035 RMK A01 T01740062  RH  048%=      5-min Rain = 0
KGU1 110519Z 03006KT 18/06 A3035 RMK A01 T01750063  RH  048%=      5-min Rain = 0
KGU1 110520Z 03007KT 18/06 A3035 RMK A01 T01750062  RH  048%=      5-min Rain = 0
KGU1 110521Z 02006KT 18/06 A3035 RMK A01 T01760062  RH  048%=      5-min Rain = 0
KGU1 110522Z 01006KT 18/06 A3035 RMK A01 T01760062  RH  048%=      5-min Rain = 0
KGU1 110523Z 01005KT 18/06 A3035 RMK A01 T01750063  RH  048%=      5-min Rain = 0
KGU1 110524Z 02006KT 18/06 A3035 RMK A01 T01750062  RH  048%=      5-min Rain = 0
KGU1 110525Z 02005KT 18/06 A3035 RMK A01 T01750062  RH  048%=      5-min Rain = 0
KGU1 110526Z 01005KT 18/06 A3035 RMK A01 T01750062  RH  048%=      5-min Rain = 0
KGU1 110527Z 02005KT 17/06 A3035 RMK A01 T01740062  RH  048%=      5-min Rain = 0
KGU1 110528Z 01005KT 17/06 A3035 RMK A01 T01740062  RH  049%=      5-min Rain = 0
KGU1 110529Z 02006KT 17/06 A3035 RMK A01 T01730063  RH  049%=      5-min Rain = 0
KGU1 110530Z 01005KT 17/06 A3035 RMK A01 T01730063  RH  049%=      5-min Rain = 0
KGU1 110531Z 01005KT 17/06 A3035 RMK A01 T01730063  RH  049%=      5-min Rain = 0
KGU1 110532Z 02005KT 17/06 A3035 RMK A01 T01730062  RH  049%=      5-min Rain = 0
KGU1 110533Z 02005KT 17/06 A3035 RMK A01 T01730062  RH  049%=      5-min Rain = 0
KGU1 110534Z 02005KT 17/06 A3035 RMK A01 T01730062  RH  049%=      5-min Rain = 0
KGU1 110535Z 02005KT 17/06 A3035 RMK A01 T01720063  RH  049%=      5-min Rain = 0
KGU1 110536Z 02005KT 17/06 A3035 RMK A01 T01730063  RH  049%=      5-min Rain = 0
KGU1 110537Z 01004KT 17/06 A3035 RMK A01 T01730063  RH  049%=      5-min Rain = 0
KGU1 110538Z 03005KT 17/06 A3035 RMK A01 T01720063  RH  049%=      5-min Rain = 0
KGU1 110539Z 03006KT 17/06 A3035 RMK A01 T01720062  RH  049%=      5-min Rain = 0
KGU1 110540Z 03007KT 17/06 A3035 RMK A01 T01730062  RH  049%=      5-min Rain = 0
KGU1 110541Z 03006KT 17/06 A3035 RMK A01 T01740062  RH  048%=      5-min Rain = 0
KGU1 110542Z 03007KT 17/06 A3035 RMK A01 T01740062  RH  048%=      5-min Rain = 0
KGU1 110543Z 02005KT 17/06 A3035 RMK A01 T01740062  RH  048%=      5-min Rain = 0
KGU1 110544Z 02006KT 17/06 A3035 RMK A01 T01740062  RH  048%=      5-min Rain = 0
KGU1 110545Z 03006KT 17/06 A3035 RMK A01 T01730061  RH  048%=      5-min Rain = 0
KGU1 110546Z 02007KT 17/06 A3035 RMK A01 T01740061  RH  048%=      5-min Rain = 0
KGU1 110547Z 04006KT 17/06 A3035 RMK A01 T01740061  RH  048%=      5-min Rain = 0
KGU1 110548Z 03006KT 17/06 A3035 RMK A01 T01740061  RH  048%=      5-min Rain = 0
KGU1 110549Z 02006KT 17/06 A3035 RMK A01 T01730061  RH  048%=      5-min Rain = 0
KGU1 110550Z 03006KT 17/06 A3035 RMK A01 T01730061  RH  048%=      5-min Rain = 0
KGU1 110551Z 03005KT 17/06 A3035 RMK A01 T01730061  RH  048%=      5-min Rain = 0
KGU1 110552Z 02003KT 17/06 A3035 RMK A01 T01730061  RH  049%=      5-min Rain = 0
KGU1 110553Z 02005KT 17/06 A3035 RMK A01 T01720061  RH  049%=      5-min Rain = 0
KGU1 110554Z 02006KT 17/06 A3035 RMK A01 T01710061  RH  049%=      5-min Rain = 0
KGU1 110555Z 01005KT 17/06 A3035 RMK A01 T01710061  RH  049%=      5-min Rain = 0
KGU1 110556Z 05004KT 17/06 A3035 RMK A01 T01710061  RH  049%=      5-min Rain = 0
KGU1 110557Z 03004KT 17/06 A3035 RMK A01 T01710061  RH  049%=      5-min Rain = 0
KGU1 110558Z 05004KT 17/06 A3035 RMK A01 T01700060  RH  049%=      5-min Rain = 0
KGU1 110559Z 05005KT 17/06 A3035 RMK A01 T01700059  RH  049%=      5-min Rain = 0
KGU1 110600Z 03005KT 17/06 A3035 RMK A01 T01700059  RH  049%=      5-min Rain = 0
KGU1 110601Z 03005KT 17/06 A3035 RMK A01 T01700059  RH  049%=      5-min Rain = 0
KGU1 110602Z 03007KT 17/06 A3035 RMK A01 T01710058  RH  048%=      5-min Rain = 0
KGU1 110603Z 03005KT 17/06 A3035 RMK A01 T01720058  RH  047%=      5-min Rain = 0
KGU1 110604Z 04005KT 17/06 A3035 RMK A01 T01730058  RH  047%=      5-min Rain = 0
KGU1 110605Z 03005KT 17/06 A3035 RMK A01 T01730058  RH  047%=      5-min Rain = 0
KGU1 110606Z 05008KT 17/06 A3035 RMK A01 T01720058  RH  047%=      5-min Rain = 0
KGU1 110607Z 05007KT 17/06 A3035 RMK A01 T01740057  RH  047%=      5-min Rain = 0
KGU1 110608Z 01007KT 18/06 A3035 RMK A01 T01750057  RH  047%=      5-min Rain = 0
KGU1 110609Z 01007KT 17/06 A3035 RMK A01 T01740058  RH  047%=      5-min Rain = 0
KGU1 110610Z 02006KT 18/06 A3035 RMK A01 T01750058  RH  047%=      5-min Rain = 0
KGU1 110611Z 02006KT 18/06 A3035 RMK A01 T01750058  RH  047%=      5-min Rain = 0
KGU1 110612Z 03007KT 17/06 A3035 RMK A01 T01740059  RH  047%=      5-min Rain = 0
KGU1 110613Z 02007KT 17/06 A3035 RMK A01 T01730059  RH  048%=      5-min Rain = 0
KGU1 110614Z 02005KT 17/06 A3035 RMK A01 T01720059  RH  048%=      5-min Rain = 0
KGU1 110615Z 01004KT 17/06 A3035 RMK A01 T01710059  RH  048%=      5-min Rain = 0
KGU1 110616Z 01007KT 17/06 A3035 RMK A01 T01710059  RH  048%=      5-min Rain = 0
KGU1 110617Z 02006KT 17/06 A3035 RMK A01 T01710059  RH  048%=      5-min Rain = 0
KGU1 110618Z 03004KT 17/06 A3035 RMK A01 T01710059  RH  048%=      5-min Rain = 0
KGU1 110619Z 03004KT 17/06 A3035 RMK A01 T01700059  RH  049%=      5-min Rain = 0
KGU1 110620Z 02004KT 17/06 A3034 RMK A01 T01700059  RH  049%=      5-min Rain = 0
KGU1 110621Z 02005KT 17/06 A3034 RMK A01 T01690059  RH  049%=      5-min Rain = 0
KGU1 110622Z 02007KT 17/06 A3035 RMK A01 T01690059  RH  049%=      5-min Rain = 0
KGU1 110623Z 01008KT 17/06 A3034 RMK A01 T01710059  RH  048%=      5-min Rain = 0
KGU1 110624Z 03009KT 17/06 A3034 RMK A01 T01710059  RH  048%=      5-min Rain = 0
KGU1 110625Z 01007KT 17/06 A3034 RMK A01 T01730059  RH  048%=      5-min Rain = 0
KGU1 110626Z 02006KT 17/06 A3034 RMK A01 T01720059  RH  048%=      5-min Rain = 0
KGU1 110627Z 01006KT 17/06 A3034 RMK A01 T01720060  RH  048%=      5-min Rain = 0
KGU1 110628Z 02005KT 17/06 A3034 RMK A01 T01710060  RH  049%=      5-min Rain = 0
KGU1 110629Z 02006KT 17/06 A3034 RMK A01 T01710060  RH  049%=      5-min Rain = 0
KGU1 110630Z 01007KT 17/06 A3034 RMK A01 T01700061  RH  049%=      5-min Rain = 0
KGU1 110631Z 04007KT 17/06 A3035 RMK A01 T01700060  RH  049%=      5-min Rain = 0
KGU1 110632Z 05005KT 17/06 A3034 RMK A01 T01700060  RH  049%=      5-min Rain = 0
KGU1 110633Z 04004KT 17/06 A3034 RMK A01 T01700061  RH  049%=      5-min Rain = 0
KGU1 110634Z 03004KT 17/06 A3034 RMK A01 T01700060  RH  049%=      5-min Rain = 0
KGU1 110635Z 03004KT 17/06 A3034 RMK A01 T01690061  RH  049%=      5-min Rain = 0
KGU1 110636Z 02008KT 17/06 A3034 RMK A01 T01700061  RH  049%=      5-min Rain = 0
KGU1 110637Z 02005KT 17/06 A3034 RMK A01 T01710061  RH  049%=      5-min Rain = 0
KGU1 110638Z 02005KT 17/06 A3034 RMK A01 T01720061  RH  048%=      5-min Rain = 0
KGU1 110639Z 02006KT 17/06 A3034 RMK A01 T01720061  RH  049%=      5-min Rain = 0
KGU1 110640Z 02006KT 17/06 A3034 RMK A01 T01710061  RH  049%=      5-min Rain = 0
KGU1 110641Z 04008KT 17/06 A3034 RMK A01 T01710061  RH  049%=      5-min Rain = 0
KGU1 110642Z 03007KT 17/06 A3034 RMK A01 T01730060  RH  048%=      5-min Rain = 0
KGU1 110643Z 03007KT 18/06 A3035 RMK A01 T01750060  RH  047%=      5-min Rain = 0
KGU1 110644Z 04004KT 18/06 A3035 RMK A01 T01750061  RH  048%=      5-min Rain = 0
KGU1 110645Z 05005KT 18/06 A3035 RMK A01 T01750061  RH  048%=      5-min Rain = 0
KGU1 110646Z 04005KT 17/06 A3035 RMK A01 T01740062  RH  048%=      5-min Rain = 0
KGU1 110647Z 01004KT 17/06 A3034 RMK A01 T01730061  RH  048%=      5-min Rain = 0
KGU1 110648Z 36005KT 17/06 A3034 RMK A01 T01720061  RH  049%=      5-min Rain = 0
KGU1 110649Z 01006KT 17/06 A3034 RMK A01 T01720062  RH  049%=      5-min Rain = 0
KGU1 110650Z 02007KT 17/06 A3034 RMK A01 T01710062  RH  049%=      5-min Rain = 0
KGU1 110651Z 06005KT 17/06 A3034 RMK A01 T01700062  RH  049%=      5-min Rain = 0
KGU1 110652Z 07004KT 17/06 A3034 RMK A01 T01710061  RH  049%=      5-min Rain = 0
KGU1 110653Z 04005KT 17/06 A3034 RMK A01 T01720061  RH  049%=      5-min Rain = 0
KGU1 110654Z 01003KT 17/06 A3034 RMK A01 T01710061  RH  049%=      5-min Rain = 0
KGU1 110655Z 00005KT 17/06 A3034 RMK A01 T01700062  RH  049%=      5-min Rain = 0
KGU1 110656Z 02005KT 17/06 A3034 RMK A01 T01690062  RH  050%=      5-min Rain = 0
KGU1 110657Z 04006KT 17/06 A3034 RMK A01 T01680062  RH  050%=      5-min Rain = 0
KGU1 110658Z 02007KT 17/06 A3034 RMK A01 T01680062  RH  050%=      5-min Rain = 0
KGU1 110659Z 01006KT 17/06 A3034 RMK A01 T01680062  RH  050%=      5-min Rain = 0
KGU1 110700Z 02006KT 17/06 A3034 RMK A01 T01670062  RH  051%=      5-min Rain = 0
KGU1 110701Z 02005KT 17/06 A3034 RMK A01 T01660062  RH  051%=      5-min Rain = 0
KGU1 110702Z 02004KT 17/06 A3034 RMK A01 T01670062  RH  051%=      5-min Rain = 0
KGU1 110703Z 02005KT 17/06 A3034 RMK A01 T01670062  RH  051%=      5-min Rain = 0
KGU1 110704Z 03006KT 17/06 A3034 RMK A01 T01680061  RH  050%=      5-min Rain = 0
KGU1 110705Z 36007KT 17/06 A3034 RMK A01 T01700060  RH  049%=      5-min Rain = 0
KGU1 110706Z 00009KT 17/06 A3034 RMK A01 T01720060  RH  049%=      5-min Rain = 0
KGU1 110707Z 02007KT 17/06 A3034 RMK A01 T01730060  RH  048%=      5-min Rain = 0
KGU1 110708Z 02008KT 17/06 A3034 RMK A01 T01740060  RH  048%=      5-min Rain = 0
KGU1 110709Z 02007KT 18/06 A3034 RMK A01 T01750060  RH  048%=      5-min Rain = 0
KGU1 110710Z 02005KT 17/06 A3034 RMK A01 T01740061  RH  048%=      5-min Rain = 0
KGU1 110711Z 01006KT 17/06 A3034 RMK A01 T01730061  RH  048%=      5-min Rain = 0
KGU1 110712Z 01007KT 17/06 A3034 RMK A01 T01710062  RH  049%=      5-min Rain = 0
KGU1 110713Z 01006KT 17/06 A3034 RMK A01 T01690062  RH  050%=      5-min Rain = 0
KGU1 110714Z 02006KT 17/06 A3034 RMK A01 T01680062  RH  050%=      5-min Rain = 0
KGU1 110715Z 02008KT 17/06 A3034 RMK A01 T01680060  RH  050%=      5-min Rain = 0
KGU1 110716Z 03005KT 17/06 A3034 RMK A01 T01690059  RH  049%=      5-min Rain = 0
KGU1 110717Z 01006KT 17/06 A3034 RMK A01 T01710059  RH  048%=      5-min Rain = 0
KGU1 110718Z 02007KT 17/06 A3034 RMK A01 T01710060  RH  049%=      5-min Rain = 0
KGU1 110719Z 01006KT 17/06 A3034 RMK A01 T01710061  RH  049%=      5-min Rain = 0
KGU1 110720Z 01007KT 17/06 A3034 RMK A01 T01700061  RH  049%=      5-min Rain = 0
KGU1 110721Z 02005KT 17/06 A3034 RMK A01 T01690061  RH  050%=      5-min Rain = 0
KGU1 110722Z 04004KT 17/06 A3034 RMK A01 T01680061  RH  050%=      5-min Rain = 0
KGU1 110723Z 04007KT 17/06 A3034 RMK A01 T01670060  RH  050%=      5-min Rain = 0
KGU1 110724Z 02005KT 17/06 A3034 RMK A01 T01670060  RH  050%=      5-min Rain = 0
KGU1 110725Z 35005KT 17/06 A3034 RMK A01 T01690060  RH  049%=      5-min Rain = 0
KGU1 110726Z 36005KT 17/06 A3034 RMK A01 T01680060  RH  049%=      5-min Rain = 0
KGU1 110727Z 01004KT 17/06 A3034 RMK A01 T01670060  RH  050%=      5-min Rain = 0
KGU1 110728Z 01004KT 17/06 A3034 RMK A01 T01650060  RH  051%=      5-min Rain = 0
KGU1 110729Z 01005KT 16/06 A3034 RMK A01 T01640060  RH  051%=      5-min Rain = 0
KGU1 110730Z 00005KT 16/06 A3034 RMK A01 T01640060  RH  051%=      5-min Rain = 0
KGU1 110731Z 03005KT 16/06 A3034 RMK A01 T01630060  RH  051%=      5-min Rain = 0
KGU1 110732Z 02005KT 17/06 A3034 RMK A01 T01650059  RH  050%=      5-min Rain = 0
KGU1 110733Z 05004KT 17/06 A3034 RMK A01 T01660059  RH  050%=      5-min Rain = 0
KGU1 110734Z 03005KT 17/06 A3034 RMK A01 T01670059  RH  050%=      5-min Rain = 0
KGU1 110735Z 00006KT 17/06 A3034 RMK A01 T01660059  RH  050%=      5-min Rain = 0
KGU1 110736Z 36006KT 17/06 A3034 RMK A01 T01670059  RH  049%=      5-min Rain = 0
KGU1 110737Z 00005KT 17/06 A3034 RMK A01 T01670059  RH  049%=      5-min Rain = 0
KGU1 110738Z 00005KT 17/06 A3034 RMK A01 T01670059  RH  049%=      5-min Rain = 0
KGU1 110739Z 02005KT 17/06 A3034 RMK A01 T01660058  RH  050%=      5-min Rain = 0
KGU1 110740Z 01006KT 17/06 A3034 RMK A01 T01660058  RH  049%=      5-min Rain = 0
KGU1 110741Z 01006KT 17/06 A3033 RMK A01 T01660059  RH  050%=      5-min Rain = 0
KGU1 110742Z 03005KT 17/06 A3033 RMK A01 T01660059  RH  050%=      5-min Rain = 0
KGU1 110743Z 02007KT 17/06 A3033 RMK A01 T01670059  RH  050%=      5-min Rain = 0
KGU1 110744Z 00006KT 17/06 A3033 RMK A01 T01690059  RH  049%=      5-min Rain = 0
KGU1 110745Z 00006KT 17/06 A3033 RMK A01 T01700058  RH  048%=      5-min Rain = 0
KGU1 110746Z 35005KT 17/06 A3033 RMK A01 T01690058  RH  048%=      5-min Rain = 0
KGU1 110747Z 35006KT 17/06 A3033 RMK A01 T01690058  RH  049%=      5-min Rain = 0
KGU1 110748Z 00006KT 17/06 A3033 RMK A01 T01680059  RH  049%=      5-min Rain = 0
KGU1 110749Z 01006KT 17/06 A3033 RMK A01 T01680059  RH  049%=      5-min Rain = 0
KGU1 110750Z 01005KT 17/06 A3033 RMK A01 T01680059  RH  049%=      5-min Rain = 0
KGU1 110751Z 00005KT 17/06 A3033 RMK A01 T01680059  RH  049%=      5-min Rain = 0
KGU1 110752Z 36005KT 17/06 A3033 RMK A01 T01670059  RH  049%=      5-min Rain = 0
KGU1 110753Z 00005KT 17/06 A3033 RMK A01 T01670059  RH  049%=      5-min Rain = 0
KGU1 110754Z 02005KT 17/06 A3033 RMK A01 T01680059  RH  049%=      5-min Rain = 0
KGU1 110755Z 01005KT 17/06 A3033 RMK A01 T01670059  RH  050%=      5-min Rain = 0
KGU1 110756Z 01006KT 17/06 A3033 RMK A01 T01670059  RH  050%=      5-min Rain = 0
KGU1 110757Z 00007KT 17/06 A3033 RMK A01 T01660059  RH  050%=      5-min Rain = 0
KGU1 110758Z 00007KT 17/06 A3033 RMK A01 T01650059  RH  050%=      5-min Rain = 0
KGU1 110759Z 00005KT 17/06 A3033 RMK A01 T01660059  RH  050%=      5-min Rain = 0
KGU1 110800Z 00005KT 17/06 A3033 RMK A01 T01660059  RH  050%=      5-min Rain = 0
KGU1 110801Z 01006KT 17/06 A3033 RMK A01 T01660059  RH  050%=      5-min Rain = 0
KGU1 110802Z 01006KT 17/06 A3033 RMK A01 T01660059  RH  050%=      5-min Rain = 0
KGU1 110803Z 01005KT 17/06 A3033 RMK A01 T01650060  RH  050%=      5-min Rain = 0
KGU1 110804Z 00005KT 17/06 A3033 RMK A01 T01650060  RH  051%=      5-min Rain = 0
KGU1 110805Z 01005KT 16/06 A3033 RMK A01 T01640060  RH  051%=      5-min Rain = 0
KGU1 110806Z 01006KT 16/06 A3033 RMK A01 T01640060  RH  051%=      5-min Rain = 0
KGU1 110807Z 00005KT 16/06 A3033 RMK A01 T01630060  RH  051%=      5-min Rain = 0
KGU1 110808Z 01005KT 16/06 A3033 RMK A01 T01630060  RH  051%=      5-min Rain = 0
KGU1 110809Z 01003KT 16/06 A3033 RMK A01 T01640060  RH  051%=      5-min Rain = 0
KGU1 110810Z 02005KT 16/06 A3033 RMK A01 T01630060  RH  051%=      5-min Rain = 0
KGU1 110811Z 02005KT 16/06 A3033 RMK A01 T01630060  RH  051%=      5-min Rain = 0
KGU1 110812Z 02004KT 16/06 A3033 RMK A01 T01630060  RH  051%=      5-min Rain = 0
KGU1 110813Z 01003KT 16/06 A3033 RMK A01 T01620060  RH  052%=      5-min Rain = 0
KGU1 110814Z 02004KT 16/06 A3033 RMK A01 T01610060  RH  052%=      5-min Rain = 0
KGU1 110815Z 02004KT 16/06 A3033 RMK A01 T01610060  RH  052%=      5-min Rain = 0
KGU1 110816Z 01005KT 16/06 A3033 RMK A01 T01600061  RH  052%=      5-min Rain = 0
KGU1 110817Z 02005KT 16/06 A3033 RMK A01 T01590061  RH  053%=      5-min Rain = 0
KGU1 110818Z 03004KT 16/06 A3033 RMK A01 T01580061  RH  053%=      5-min Rain = 0
KGU1 110819Z 02005KT 16/06 A3033 RMK A01 T01580061  RH  053%=      5-min Rain = 0
KGU1 110820Z 01005KT 16/06 A3033 RMK A01 T01570061  RH  054%=      5-min Rain = 0
KGU1 110821Z 01006KT 16/06 A3033 RMK A01 T01570061  RH  054%=      5-min Rain = 0
KGU1 110822Z 01005KT 16/06 A3033 RMK A01 T01560061  RH  054%=      5-min Rain = 0
KGU1 110823Z 01006KT 16/06 A3033 RMK A01 T01560061  RH  054%=      5-min Rain = 0
KGU1 110824Z 01006KT 16/06 A3033 RMK A01 T01570061  RH  054%=      5-min Rain = 0
KGU1 110825Z 01006KT 16/06 A3033 RMK A01 T01570060  RH  053%=      5-min Rain = 0
KGU1 110826Z 02005KT 16/06 A3033 RMK A01 T01570060  RH  053%=      5-min Rain = 0
KGU1 110827Z 02005KT 16/06 A3033 RMK A01 T01560060  RH  053%=      5-min Rain = 0
KGU1 110828Z 02006KT 16/06 A3033 RMK A01 T01570059  RH  053%=      5-min Rain = 0
KGU1 110829Z 01005KT 16/06 A3033 RMK A01 T01570059  RH  053%=      5-min Rain = 0
KGU1 110830Z 01005KT 16/06 A3033 RMK A01 T01570059  RH  053%=      5-min Rain = 0
KGU1 110831Z 01005KT 16/06 A3033 RMK A01 T01570059  RH  053%=      5-min Rain = 0
KGU1 110832Z 01005KT 16/06 A3033 RMK A01 T01570058  RH  053%=      5-min Rain = 0
KGU1 110833Z 01005KT 16/06 A3033 RMK A01 T01570058  RH  052%=      5-min Rain = 0
KGU1 110834Z 01004KT 16/06 A3033 RMK A01 T01580058  RH  052%=      5-min Rain = 0
KGU1 110835Z 36004KT 16/06 A3033 RMK A01 T01580058  RH  052%=      5-min Rain = 0
KGU1 110836Z 01004KT 16/06 A3033 RMK A01 T01570058  RH  052%=      5-min Rain = 0
KGU1 110837Z 01004KT 16/06 A3033 RMK A01 T01570057  RH  052%=      5-min Rain = 0
KGU1 110838Z 02004KT 16/06 A3033 RMK A01 T01560058  RH  052%=      5-min Rain = 0
KGU1 110839Z 01004KT 16/06 A3033 RMK A01 T01570057  RH  052%=      5-min Rain = 0
KGU1 110840Z 01003KT 16/06 A3033 RMK A01 T01570057  RH  052%=      5-min Rain = 0
KGU1 110841Z 36004KT 16/06 A3033 RMK A01 T01580057  RH  052%=      5-min Rain = 0
KGU1 110842Z 00004KT 16/06 A3033 RMK A01 T01580057  RH  052%=      5-min Rain = 0
KGU1 110843Z 00005KT 16/06 A3033 RMK A01 T01580057  RH  052%=      5-min Rain = 0
KGU1 110844Z 01005KT 16/06 A3033 RMK A01 T01590057  RH  052%=      5-min Rain = 0
KGU1 110845Z 01005KT 16/06 A3033 RMK A01 T01590058  RH  052%=      5-min Rain = 0
KGU1 110846Z 00005KT 16/06 A3033 RMK A01 T01590058  RH  052%=      5-min Rain = 0
KGU1 110847Z 00005KT 16/06 A3033 RMK A01 T01590058  RH  052%=      5-min Rain = 0
KGU1 110848Z 01004KT 16/06 A3033 RMK A01 T01590058  RH  052%=      5-min Rain = 0
KGU1 110849Z 01004KT 16/06 A3033 RMK A01 T01580058  RH  052%=      5-min Rain = 0
KGU1 110850Z 36004KT 16/06 A3033 RMK A01 T01580058  RH  052%=      5-min Rain = 0
KGU1 110851Z 36006KT 16/06 A3033 RMK A01 T01560059  RH  053%=      5-min Rain = 0
KGU1 110852Z 35005KT 16/06 A3033 RMK A01 T01550059  RH  053%=      5-min Rain = 0
KGU1 110853Z 35005KT 16/06 A3033 RMK A01 T01550059  RH  053%=      5-min Rain = 0
KGU1 110854Z 36005KT 16/06 A3033 RMK A01 T01560059  RH  053%=      5-min Rain = 0
KGU1 110855Z 00005KT 16/06 A3033 RMK A01 T01550059  RH  053%=      5-min Rain = 0
KGU1 110856Z 36005KT 16/06 A3033 RMK A01 T01560058  RH  053%=      5-min Rain = 0
KGU1 110857Z 00005KT 16/06 A3033 RMK A01 T01560058  RH  053%=      5-min Rain = 0
KGU1 110858Z 00004KT 16/06 A3033 RMK A01 T01570058  RH  052%=      5-min Rain = 0
KGU1 110859Z 00004KT 16/06 A3033 RMK A01 T01570058  RH  052%=      5-min Rain = 0
KGU1 110900Z 00005KT 16/06 A3033 RMK A01 T01570058  RH  052%=      5-min Rain = 0
KGU1 110901Z 35005KT 16/06 A3033 RMK A01 T01570058  RH  052%=      5-min Rain = 0
KGU1 110902Z 35006KT 16/06 A3032 RMK A01 T01580058  RH  052%=      5-min Rain = 0
KGU1 110903Z 36005KT 16/06 A3032 RMK A01 T01580058  RH  052%=      5-min Rain = 0
KGU1 110904Z 00005KT 16/06 A3032 RMK A01 T01590058  RH  052%=      5-min Rain = 0
KGU1 110905Z 35005KT 16/06 A3032 RMK A01 T01590058  RH  052%=      5-min Rain = 0
KGU1 110906Z 00006KT 16/06 A3032 RMK A01 T01590058  RH  052%=      5-min Rain = 0
KGU1 110907Z 00006KT 16/06 A3032 RMK A01 T01580058  RH  052%=      5-min Rain = 0
KGU1 110908Z 02006KT 16/06 A3032 RMK A01 T01590058  RH  052%=      5-min Rain = 0
KGU1 110909Z 01005KT 16/06 A3032 RMK A01 T01590058  RH  052%=      5-min Rain = 0
KGU1 110910Z 36005KT 16/06 A3032 RMK A01 T01590058  RH  052%=      5-min Rain = 0
KGU1 110911Z 36005KT 16/06 A3032 RMK A01 T01590058  RH  052%=      5-min Rain = 0
KGU1 110912Z 01005KT 16/06 A3032 RMK A01 T01580058  RH  052%=      5-min Rain = 0
KGU1 110913Z 00005KT 16/06 A3032 RMK A01 T01580058  RH  052%=      5-min Rain = 0
KGU1 110914Z 35005KT 16/06 A3032 RMK A01 T01580058  RH  052%=      5-min Rain = 0
KGU1 110915Z 34006KT 16/06 A3032 RMK A01 T01580059  RH  052%=      5-min Rain = 0
KGU1 110916Z 34006KT 16/06 A3032 RMK A01 T01580059  RH  052%=      5-min Rain = 0
KGU1 110917Z 34006KT 16/06 A3032 RMK A01 T01570059  RH  053%=      5-min Rain = 0
KGU1 110918Z 33006KT 16/06 A3032 RMK A01 T01550059  RH  054%=      5-min Rain = 0
KGU1 110919Z 33005KT 15/06 A3032 RMK A01 T01530060  RH  055%=      5-min Rain = 0
KGU1 110920Z 33005KT 15/06 A3032 RMK A01 T01510061  RH  055%=      5-min Rain = 0
KGU1 110921Z 34004KT 15/06 A3032 RMK A01 T01500061  RH  056%=      5-min Rain = 0
KGU1 110922Z 35003KT 15/06 A3032 RMK A01 T01500061  RH  056%=      5-min Rain = 0
KGU1 110923Z 33003KT 15/06 A3032 RMK A01 T01500060  RH  056%=      5-min Rain = 0
KGU1 110924Z 35005KT 15/06 A3032 RMK A01 T01490060  RH  056%=      5-min Rain = 0
KGU1 110925Z 36005KT 15/06 A3032 RMK A01 T01490060  RH  056%=      5-min Rain = 0
KGU1 110926Z 36005KT 15/06 A3032 RMK A01 T01500060  RH  056%=      5-min Rain = 0
KGU1 110927Z 00005KT 15/06 A3032 RMK A01 T01510060  RH  055%=      5-min Rain = 0
KGU1 110928Z 34004KT 15/06 A3032 RMK A01 T01520060  RH  055%=      5-min Rain = 0
KGU1 110929Z 34004KT 15/06 A3032 RMK A01 T01510060  RH  055%=      5-min Rain = 0
KGU1 110930Z 35003KT 15/06 A3032 RMK A01 T01520060  RH  055%=      5-min Rain = 0
KGU1 110931Z 36005KT 15/06 A3032 RMK A01 T01530059  RH  054%=      5-min Rain = 0
KGU1 110932Z 00004KT 16/06 A3032 RMK A01 T01550059  RH  054%=      5-min Rain = 0
KGU1 110933Z 36004KT 16/06 A3032 RMK A01 T01550059  RH  054%=      5-min Rain = 0
KGU1 110934Z 00004KT 15/06 A3032 RMK A01 T01540059  RH  054%=      5-min Rain = 0
KGU1 110935Z 02004KT 16/06 A3032 RMK A01 T01550059  RH  054%=      5-min Rain = 0
KGU1 110936Z 01003KT 16/06 A3032 RMK A01 T01560059  RH  053%=      5-min Rain = 0
KGU1 110937Z 02003KT 16/06 A3032 RMK A01 T01570059  RH  053%=      5-min Rain = 0
KGU1 110938Z 00004KT 16/06 A3032 RMK A01 T01570058  RH  053%=      5-min Rain = 0
KGU1 110939Z 34004KT 16/06 A3032 RMK A01 T01580058  RH  052%=      5-min Rain = 0
KGU1 110940Z 35005KT 16/06 A3032 RMK A01 T01570059  RH  053%=      5-min Rain = 0
KGU1 110941Z 34004KT 16/06 A3032 RMK A01 T01560059  RH  053%=      5-min Rain = 0
KGU1 110942Z 35005KT 16/06 A3032 RMK A01 T01550060  RH  054%=      5-min Rain = 0
KGU1 110943Z 35004KT 15/06 A3032 RMK A01 T01540060  RH  054%=      5-min Rain = 0
KGU1 110944Z 00004KT 15/06 A3032 RMK A01 T01540060  RH  054%=      5-min Rain = 0
KGU1 110945Z 36005KT 15/06 A3032 RMK A01 T01540060  RH  054%=      5-min Rain = 0
KGU1 110946Z 35005KT 15/06 A3032 RMK A01 T01540060  RH  054%=      5-min Rain = 0
KGU1 110947Z 36005KT 15/06 A3032 RMK A01 T01540060  RH  054%=      5-min Rain = 0
KGU1 110948Z 01003KT 16/06 A3032 RMK A01 T01550059  RH  054%=      5-min Rain = 0
KGU1 110949Z 01002KT 16/06 A3032 RMK A01 T01560059  RH  053%=      5-min Rain = 0
KGU1 110950Z 36002KT 16/06 A3032 RMK A01 T01580059  RH  052%=      5-min Rain = 0
KGU1 110951Z 35003KT 16/06 A3032 RMK A01 T01580059  RH  052%=      5-min Rain = 0
KGU1 110952Z 35003KT 16/06 A3032 RMK A01 T01580059  RH  053%=      5-min Rain = 0
KGU1 110953Z 34003KT 16/06 A3032 RMK A01 T01570059  RH  053%=      5-min Rain = 0
KGU1 110954Z 34002KT 16/06 A3032 RMK A01 T01560060  RH  054%=      5-min Rain = 0
KGU1 110955Z 01002KT 16/06 A3032 RMK A01 T01550060  RH  054%=      5-min Rain = 0
KGU1 110956Z 36003KT 15/06 A3032 RMK A01 T01540060  RH  054%=      5-min Rain = 0
KGU1 110957Z 35004KT 15/06 A3032 RMK A01 T01540060  RH  054%=      5-min Rain = 0
KGU1 110958Z 34006KT 15/06 A3032 RMK A01 T01540060  RH  055%=      5-min Rain = 0
KGU1 110959Z 34006KT 15/06 A3032 RMK A01 T01540061  RH  055%=      5-min Rain = 0
KGU1 111000Z 34005KT 15/06 A3032 RMK A01 T01540061  RH  055%=      5-min Rain = 0
KGU1 111001Z 34004KT 15/06 A3032 RMK A01 T01530061  RH  055%=      5-min Rain = 0
KGU1 111002Z 32004KT 15/06 A3032 RMK A01 T01510061  RH  056%=      5-min Rain = 0
KGU1 111003Z 35004KT 15/06 A3032 RMK A01 T01490061  RH  056%=      5-min Rain = 0
KGU1 111004Z 00003KT 15/06 A3032 RMK A01 T01490061  RH  057%=      5-min Rain = 0
KGU1 111005Z 36004KT 15/06 A3032 RMK A01 T01490061  RH  056%=      5-min Rain = 0
KGU1 111006Z 35004KT 15/06 A3032 RMK A01 T01500061  RH  056%=      5-min Rain = 0
KGU1 111007Z 36004KT 15/06 A3032 RMK A01 T01500060  RH  056%=      5-min Rain = 0
KGU1 111008Z 00003KT 15/06 A3032 RMK A01 T01500060  RH  056%=      5-min Rain = 0
KGU1 111009Z 00004KT 15/06 A3032 RMK A01 T01500061  RH  056%=      5-min Rain = 0
KGU1 111010Z 00005KT 15/06 A3032 RMK A01 T01510060  RH  056%=      5-min Rain = 0
KGU1 111011Z 01005KT 15/06 A3032 RMK A01 T01520060  RH  055%=      5-min Rain = 0
KGU1 111012Z 03002KT 16/06 A3032 RMK A01 T01550060  RH  054%=      5-min Rain = 0
KGU1 111013Z 36003KT 16/06 A3032 RMK A01 T01550059  RH  054%=      5-min Rain = 0
KGU1 111014Z 35004KT 15/06 A3032 RMK A01 T01540059  RH  054%=      5-min Rain = 0
KGU1 111015Z 36005KT 15/06 A3032 RMK A01 T01530059  RH  054%=      5-min Rain = 0
KGU1 111016Z 35005KT 15/06 A3032 RMK A01 T01530060  RH  054%=      5-min Rain = 0
KGU1 111017Z 36005KT 15/06 A3032 RMK A01 T01540060  RH  054%=      5-min Rain = 0
KGU1 111018Z 36005KT 15/06 A3032 RMK A01 T01540060  RH  054%=      5-min Rain = 0
KGU1 111019Z 36004KT 16/06 A3032 RMK A01 T01560060  RH  054%=      5-min Rain = 0
KGU1 111020Z 35004KT 16/06 A3032 RMK A01 T01560060  RH  053%=      5-min Rain = 0
KGU1 111021Z 35004KT 16/06 A3032 RMK A01 T01560059  RH  053%=      5-min Rain = 0
KGU1 111022Z 35004KT 16/06 A3032 RMK A01 T01560059  RH  053%=      5-min Rain = 0
KGU1 111023Z 35004KT 16/06 A3032 RMK A01 T01550059  RH  054%=      5-min Rain = 0
KGU1 111024Z 34004KT 15/06 A3032 RMK A01 T01540060  RH  054%=      5-min Rain = 0
KGU1 111025Z 34003KT 15/06 A3032 RMK A01 T01530060  RH  055%=      5-min Rain = 0
KGU1 111026Z 00003KT 15/06 A3032 RMK A01 T01520060  RH  055%=      5-min Rain = 0
KGU1 111027Z 01004KT 15/06 A3032 RMK A01 T01510060  RH  055%=      5-min Rain = 0
KGU1 111028Z 02004KT 15/06 A3032 RMK A01 T01520059  RH  055%=      5-min Rain = 0
KGU1 111029Z 36002KT 15/06 A3032 RMK A01 T01540059  RH  054%=      5-min Rain = 0
KGU1 111030Z 36005KT 15/06 A3032 RMK A01 T01540059  RH  054%=      5-min Rain = 0
KGU1 111031Z 36004KT 15/06 A3032 RMK A01 T01530059  RH  054%=      5-min Rain = 0
KGU1 111032Z 00004KT 15/06 A3032 RMK A01 T01530059  RH  054%=      5-min Rain = 0
KGU1 111033Z 00004KT 15/06 A3032 RMK A01 T01530059  RH  054%=      5-min Rain = 0
KGU1 111034Z 36004KT 15/06 A3032 RMK A01 T01530059  RH  054%=      5-min Rain = 0
KGU1 111035Z 35004KT 15/06 A3032 RMK A01 T01530059  RH  054%=      5-min Rain = 0
KGU1 111036Z 35004KT 15/06 A3032 RMK A01 T01530059  RH  054%=      5-min Rain = 0
KGU1 111037Z 01004KT 15/06 A3032 RMK A01 T01530059  RH  054%=      5-min Rain = 0
KGU1 111038Z 36003KT 15/06 A3032 RMK A01 T01530058  RH  054%=      5-min Rain = 0
KGU1 111039Z 34004KT 15/06 A3032 RMK A01 T01530058  RH  054%=      5-min Rain = 0
KGU1 111040Z 34004KT 15/06 A3032 RMK A01 T01530059  RH  054%=      5-min Rain = 0
KGU1 111041Z 34005KT 15/06 A3032 RMK A01 T01520059  RH  054%=      5-min Rain = 0
KGU1 111042Z 32004KT 15/06 A3032 RMK A01 T01510060  RH  055%=      5-min Rain = 0
KGU1 111043Z 33004KT 15/06 A3032 RMK A01 T01480060  RH  056%=      5-min Rain = 0
KGU1 111044Z 32003KT 15/06 A3032 RMK A01 T01470060  RH  057%=      5-min Rain = 0
KGU1 111045Z 32004KT 15/06 A3032 RMK A01 T01450061  RH  058%=      5-min Rain = 0
KGU1 111046Z 32005KT 14/06 A3032 RMK A01 T01440060  RH  058%=      5-min Rain = 0
KGU1 111047Z 32005KT 14/06 A3032 RMK A01 T01420061  RH  059%=      5-min Rain = 0
KGU1 111048Z 33005KT 14/06 A3033 RMK A01 T01410061  RH  059%=      5-min Rain = 0
KGU1 111049Z 34005KT 14/06 A3033 RMK A01 T01420061  RH  059%=      5-min Rain = 0
KGU1 111050Z 33004KT 14/06 A3033 RMK A01 T01420060  RH  059%=      5-min Rain = 0
KGU1 111051Z 34005KT 14/06 A3033 RMK A01 T01420060  RH  059%=      5-min Rain = 0
KGU1 111052Z 34006KT 14/06 A3032 RMK A01 T01420060  RH  059%=      5-min Rain = 0
KGU1 111053Z 34006KT 14/06 A3032 RMK A01 T01410060  RH  059%=      5-min Rain = 0
KGU1 111054Z 35005KT 14/06 A3032 RMK A01 T01410061  RH  059%=      5-min Rain = 0
KGU1 111055Z 35005KT 14/06 A3032 RMK A01 T01410060  RH  059%=      5-min Rain = 0
KGU1 111056Z 35006KT 14/06 A3033 RMK A01 T01410061  RH  059%=      5-min Rain = 0
KGU1 111057Z 36006KT 14/06 A3033 RMK A01 T01430060  RH  058%=      5-min Rain = 0
KGU1 111058Z 00006KT 15/06 A3033 RMK A01 T01450060  RH  058%=      5-min Rain = 0
KGU1 111059Z 36006KT 15/06 A3033 RMK A01 T01470060  RH  057%=      5-min Rain = 0
KGU1 111100Z 00006KT 15/06 A3033 RMK A01 T01480060  RH  056%=      5-min Rain = 0
KGU1 111101Z 36006KT 15/06 A3033 RMK A01 T01480060  RH  056%=      5-min Rain = 0
KGU1 111102Z 35005KT 15/06 A3033 RMK A01 T01490060  RH  056%=      5-min Rain = 0
KGU1 111103Z 35004KT 15/06 A3033 RMK A01 T01490060  RH  056%=      5-min Rain = 0
KGU1 111104Z 35005KT 15/06 A3033 RMK A01 T01490060  RH  056%=      5-min Rain = 0
KGU1 111105Z 35004KT 15/06 A3033 RMK A01 T01490060  RH  056%=      5-min Rain = 0
KGU1 111106Z 01004KT 15/06 A3033 RMK A01 T01500060  RH  055%=      5-min Rain = 0
KGU1 111107Z 00003KT 15/06 A3033 RMK A01 T01510059  RH  055%=      5-min Rain = 0
KGU1 111108Z 02003KT 15/06 A3033 RMK A01 T01520059  RH  055%=      5-min Rain = 0
KGU1 111109Z 01003KT 15/06 A3033 RMK A01 T01520058  RH  054%=      5-min Rain = 0
KGU1 111110Z 00002KT 15/06 A3033 RMK A01 T01530058  RH  054%=      5-min Rain = 0
KGU1 111111Z 34003KT 15/06 A3033 RMK A01 T01540059  RH  054%=      5-min Rain = 0
KGU1 111112Z 33004KT 15/06 A3033 RMK A01 T01540059  RH  054%=      5-min Rain = 0
KGU1 111113Z 33005KT 15/06 A3033 RMK A01 T01530060  RH  055%=      5-min Rain = 0
KGU1 111114Z 33005KT 15/06 A3033 RMK A01 T01510060  RH  056%=      5-min Rain = 0
KGU1 111115Z 32005KT 15/06 A3033 RMK A01 T01480061  RH  057%=      5-min Rain = 0
KGU1 111116Z 32005KT 15/06 A3033 RMK A01 T01460061  RH  057%=      5-min Rain = 0
KGU1 111117Z 32005KT 14/06 A3033 RMK A01 T01440061  RH  058%=      5-min Rain = 0
KGU1 111118Z 31004KT 14/06 A3033 RMK A01 T01440061  RH  058%=      5-min Rain = 0
KGU1 111119Z 31003KT 14/06 A3033 RMK A01 T01440061  RH  058%=      5-min Rain = 0
KGU1 111120Z 31003KT 14/06 A3033 RMK A01 T01430061  RH  058%=      5-min Rain = 0
KGU1 111121Z 33004KT 14/06 A3033 RMK A01 T01430061  RH  058%=      5-min Rain = 0
KGU1 111122Z 34005KT 14/06 A3033 RMK A01 T01420060  RH  059%=      5-min Rain = 0
KGU1 111123Z 35005KT 14/06 A3033 RMK A01 T01440061  RH  058%=      5-min Rain = 0
KGU1 111124Z 35005KT 15/06 A3033 RMK A01 T01450060  RH  058%=      5-min Rain = 0
KGU1 111125Z 01006KT 15/06 A3033 RMK A01 T01450060  RH  058%=      5-min Rain = 0
KGU1 111126Z 01004KT 15/06 A3033 RMK A01 T01460060  RH  057%=      5-min Rain = 0
KGU1 111127Z 36004KT 15/06 A3033 RMK A01 T01460059  RH  057%=      5-min Rain = 0
KGU1 111128Z 34005KT 15/06 A3033 RMK A01 T01470059  RH  056%=      5-min Rain = 0
KGU1 111129Z 35006KT 15/06 A3033 RMK A01 T01470059  RH  056%=      5-min Rain = 0
KGU1 111130Z 35006KT 15/06 A3033 RMK A01 T01480059  RH  056%=      5-min Rain = 0
KGU1 111131Z 35005KT 15/06 A3032 RMK A01 T01480060  RH  056%=      5-min Rain = 0
KGU1 111132Z 34005KT 15/06 A3032 RMK A01 T01470060  RH  056%=      5-min Rain = 0
KGU1 111133Z 35006KT 15/06 A3032 RMK A01 T01470059  RH  056%=      5-min Rain = 0
KGU1 111134Z 34005KT 15/06 A3032 RMK A01 T01480060  RH  056%=      5-min Rain = 0
KGU1 111135Z 35005KT 15/06 A3032 RMK A01 T01480059  RH  056%=      5-min Rain = 0
KGU1 111136Z 34005KT 15/06 A3032 RMK A01 T01480059  RH  056%=      5-min Rain = 0
KGU1 111137Z 35005KT 15/06 A3032 RMK A01 T01480059  RH  056%=      5-min Rain = 0
KGU1 111138Z 35005KT 15/06 A3032 RMK A01 T01490059  RH  056%=      5-min Rain = 0
KGU1 111139Z 34005KT 15/06 A3032 RMK A01 T01490059  RH  056%=      5-min Rain = 0
KGU1 111140Z 34005KT 15/06 A3032 RMK A01 T01490059  RH  056%=      5-min Rain = 0
KGU1 111141Z 34004KT 15/06 A3032 RMK A01 T01480059  RH  056%=      5-min Rain = 0
KGU1 111142Z 35004KT 15/06 A3032 RMK A01 T01470059  RH  056%=      5-min Rain = 0
KGU1 111143Z 34004KT 15/06 A3032 RMK A01 T01470059  RH  056%=      5-min Rain = 0
KGU1 111144Z 34005KT 15/06 A3032 RMK A01 T01460059  RH  056%=      5-min Rain = 0
KGU1 111145Z 35006KT 15/06 A3032 RMK A01 T01460059  RH  056%=      5-min Rain = 0
KGU1 111146Z 35005KT 15/06 A3032 RMK A01 T01470058  RH  056%=      5-min Rain = 0
KGU1 111147Z 35005KT 15/06 A3032 RMK A01 T01470058  RH  056%=      5-min Rain = 0
KGU1 111148Z 34004KT 15/06 A3032 RMK A01 T01480059  RH  056%=      5-min Rain = 0
KGU1 111149Z 36005KT 15/06 A3032 RMK A01 T01480058  RH  056%=      5-min Rain = 0
KGU1 111150Z 35004KT 15/06 A3032 RMK A01 T01490058  RH  055%=      5-min Rain = 0
KGU1 111151Z 34004KT 15/06 A3032 RMK A01 T01490058  RH  055%=      5-min Rain = 0
KGU1 111152Z 35004KT 15/06 A3032 RMK A01 T01500058  RH  055%=      5-min Rain = 0
KGU1 111153Z 35004KT 15/06 A3032 RMK A01 T01490058  RH  055%=      5-min Rain = 0
KGU1 111154Z 34004KT 15/06 A3032 RMK A01 T01470058  RH  056%=      5-min Rain = 0
KGU1 111155Z 35004KT 15/06 A3032 RMK A01 T01450059  RH  057%=      5-min Rain = 0
KGU1 111156Z 35003KT 14/06 A3032 RMK A01 T01430059  RH  058%=      5-min Rain = 0
KGU1 111157Z 35004KT 14/06 A3032 RMK A01 T01410059  RH  058%=      5-min Rain = 0
KGU1 111158Z 35004KT 14/06 A3032 RMK A01 T01410059  RH  058%=      5-min Rain = 0
KGU1 111159Z 35004KT 14/06 A3032 RMK A01 T01400059  RH  059%=      5-min Rain = 0
KGU1 111200Z 35004KT 14/06 A3032 RMK A01 T01400058  RH  059%=      5-min Rain = 0
KGU1 111201Z 34005KT 14/06 A3032 RMK A01 T01400058  RH  059%=      5-min Rain = 0
KGU1 111202Z 35005KT 14/06 A3032 RMK A01 T01390058  RH  059%=      5-min Rain = 0
KGU1 111203Z 35004KT 14/06 A3032 RMK A01 T01390058  RH  059%=      5-min Rain = 0
KGU1 111204Z 33004KT 14/06 A3032 RMK A01 T01380058  RH  059%=      5-min Rain = 0
KGU1 111205Z 33004KT 14/06 A3032 RMK A01 T01370059  RH  060%=      5-min Rain = 0
KGU1 111206Z 34004KT 14/06 A3032 RMK A01 T01370058  RH  060%=      5-min Rain = 0
KGU1 111207Z 33004KT 14/06 A3032 RMK A01 T01380058  RH  059%=      5-min Rain = 0
KGU1 111208Z 33005KT 14/06 A3032 RMK A01 T01380058  RH  059%=      5-min Rain = 0
KGU1 111209Z 33004KT 14/06 A3033 RMK A01 T01380058  RH  059%=      5-min Rain = 0
KGU1 111210Z 33004KT 14/06 A3033 RMK A01 T01370058  RH  060%=      5-min Rain = 0
KGU1 111211Z 34004KT 14/06 A3033 RMK A01 T01380058  RH  059%=      5-min Rain = 0
KGU1 111212Z 34004KT 14/06 A3033 RMK A01 T01390058  RH  059%=      5-min Rain = 0
KGU1 111213Z 34004KT 14/06 A3033 RMK A01 T01400057  RH  058%=      5-min Rain = 0
KGU1 111214Z 34004KT 14/06 A3033 RMK A01 T01400057  RH  058%=      5-min Rain = 0
KGU1 111215Z 33004KT 14/06 A3033 RMK A01 T01380057  RH  059%=      5-min Rain = 0
KGU1 111216Z 34004KT 14/06 A3033 RMK A01 T01380057  RH  059%=      5-min Rain = 0
KGU1 111217Z 33003KT 14/06 A3033 RMK A01 T01380057  RH  059%=      5-min Rain = 0
KGU1 111218Z 33003KT 14/06 A3033 RMK A01 T01380057  RH  059%=      5-min Rain = 0
KGU1 111219Z 34003KT 14/06 A3033 RMK A01 T01380057  RH  059%=      5-min Rain = 0
KGU1 111220Z 34003KT 14/06 A3033 RMK A01 T01390057  RH  059%=      5-min Rain = 0
KGU1 111221Z 34003KT 14/06 A3033 RMK A01 T01380057  RH  059%=      5-min Rain = 0
KGU1 111222Z 34003KT 14/06 A3033 RMK A01 T01390057  RH  059%=      5-min Rain = 0
KGU1 111223Z 33003KT 14/06 A3033 RMK A01 T01390057  RH  059%=      5-min Rain = 0
KGU1 111224Z 32003KT 14/06 A3033 RMK A01 T01390057  RH  059%=      5-min Rain = 0
KGU1 111225Z 32004KT 14/06 A3033 RMK A01 T01380057  RH  059%=      5-min Rain = 0
KGU1 111226Z 32004KT 14/06 A3033 RMK A01 T01380057  RH  059%=      5-min Rain = 0
KGU1 111227Z 31004KT 14/06 A3033 RMK A01 T01380058  RH  059%=      5-min Rain = 0
KGU1 111228Z 32004KT 14/06 A3033 RMK A01 T01360057  RH  060%=      5-min Rain = 0
KGU1 111229Z 32005KT 14/06 A3033 RMK A01 T01360057  RH  060%=      5-min Rain = 0
KGU1 111230Z 31005KT 14/06 A3033 RMK A01 T01360057  RH  060%=      5-min Rain = 0
KGU1 111231Z 32005KT 14/06 A3033 RMK A01 T01360057  RH  060%=      5-min Rain = 0
KGU1 111232Z 32005KT 14/06 A3033 RMK A01 T01370056  RH  059%=      5-min Rain = 0
KGU1 111233Z 31005KT 14/06 A3033 RMK A01 T01380056  RH  058%=      5-min Rain = 0
KGU1 111234Z 31005KT 14/06 A3033 RMK A01 T01370056  RH  059%=      5-min Rain = 0
KGU1 111235Z 32005KT 14/06 A3033 RMK A01 T01370056  RH  059%=      5-min Rain = 0
KGU1 111236Z 32005KT 14/06 A3033 RMK A01 T01370056  RH  059%=      5-min Rain = 0
KGU1 111237Z 32005KT 14/06 A3033 RMK A01 T01380056  RH  059%=      5-min Rain = 0
KGU1 111238Z 32005KT 14/06 A3033 RMK A01 T01370056  RH  059%=      5-min Rain = 0
KGU1 111239Z 30005KT 14/06 A3033 RMK A01 T01370056  RH  059%=      5-min Rain = 0
KGU1 111240Z 30005KT 14/06 A3033 RMK A01 T01370055  RH  059%=      5-min Rain = 0
KGU1 111241Z 31005KT 14/06 A3033 RMK A01 T01370055  RH  059%=      5-min Rain = 0
KGU1 111242Z 31005KT 14/06 A3033 RMK A01 T01370055  RH  059%=      5-min Rain = 0
KGU1 111243Z 30005KT 14/05 A3033 RMK A01 T01360054  RH  058%=      5-min Rain = 0
KGU1 111244Z 30005KT 14/05 A3033 RMK A01 T01370054  RH  058%=      5-min Rain = 0
KGU1 111245Z 30005KT 14/05 A3033 RMK A01 T01370053  RH  058%=      5-min Rain = 0
KGU1 111246Z 30005KT 14/05 A3033 RMK A01 T01370053  RH  058%=      5-min Rain = 0
KGU1 111247Z 30006KT 14/05 A3033 RMK A01 T01360053  RH  058%=      5-min Rain = 0
KGU1 111248Z 30005KT 14/05 A3033 RMK A01 T01360053  RH  058%=      5-min Rain = 0
KGU1 111249Z 30005KT 14/05 A3033 RMK A01 T01370052  RH  057%=      5-min Rain = 0
KGU1 111250Z 30006KT 14/05 A3033 RMK A01 T01380052  RH  057%=      5-min Rain = 0
KGU1 111251Z 30005KT 14/05 A3033 RMK A01 T01380052  RH  057%=      5-min Rain = 0
KGU1 111252Z 30006KT 14/05 A3033 RMK A01 T01390052  RH  056%=      5-min Rain = 0
KGU1 111253Z 30006KT 14/05 A3033 RMK A01 T01390052  RH  056%=      5-min Rain = 0
KGU1 111254Z 30006KT 14/05 A3033 RMK A01 T01390052  RH  057%=      5-min Rain = 0
KGU1 111255Z 30006KT 14/05 A3033 RMK A01 T01390051  RH  056%=      5-min Rain = 0
KGU1 111256Z 30006KT 14/05 A3033 RMK A01 T01390051  RH  056%=      5-min Rain = 0
KGU1 111257Z 30006KT 14/05 A3033 RMK A01 T01400051  RH  056%=      5-min Rain = 0
KGU1 111258Z 30005KT 14/05 A3033 RMK A01 T01410052  RH  056%=      5-min Rain = 0
KGU1 111259Z 30007KT 14/05 A3033 RMK A01 T01430048  RH  054%=      5-min Rain = 0
KGU1 111300Z 30007KT 14/05 A3033 RMK A01 T01440047  RH  053%=      5-min Rain = 0
KGU1 111301Z 30007KT 15/05 A3033 RMK A01 T01450047  RH  053%=      5-min Rain = 0
KGU1 111302Z 30007KT 15/05 A3033 RMK A01 T01460048  RH  052%=      5-min Rain = 0
KGU1 111303Z 30006KT 15/05 A3033 RMK A01 T01470047  RH  052%=      5-min Rain = 0
KGU1 111304Z 29006KT 15/04 A3033 RMK A01 T01480044  RH  050%=      5-min Rain = 0
KGU1 111305Z 30005KT 15/04 A3033 RMK A01 T01490043  RH  050%=      5-min Rain = 0
KGU1 111306Z 31005KT 15/04 A3033 RMK A01 T01500044  RH  050%=      5-min Rain = 0
KGU1 111307Z 30004KT 15/05 A3033 RMK A01 T01510045  RH  050%=      5-min Rain = 0
KGU1 111308Z 31004KT 15/04 A3033 RMK A01 T01510043  RH  049%=      5-min Rain = 0
KGU1 111309Z 31004KT 15/04 A3033 RMK A01 T01520043  RH  049%=      5-min Rain = 0
KGU1 111310Z 31004KT 15/05 A3033 RMK A01 T01520045  RH  049%=      5-min Rain = 0
KGU1 111311Z 32003KT 15/05 A3033 RMK A01 T01530047  RH  050%=      5-min Rain = 0
KGU1 111312Z 33002KT 15/05 A3033 RMK A01 T01530048  RH  050%=      5-min Rain = 0
KGU1 111313Z 34001KT 15/05 A3033 RMK A01 T01540048  RH  050%=      5-min Rain = 0
KGU1 111314Z 33001KT 15/05 A3033 RMK A01 T01540050  RH  050%=      5-min Rain = 0
KGU1 111315Z 33001KT 16/05 A3033 RMK A01 T01550048  RH  050%=      5-min Rain = 0
KGU1 111316Z 32002KT 16/05 A3034 RMK A01 T01550051  RH  050%=      5-min Rain = 0
KGU1 111317Z 31002KT 16/05 A3034 RMK A01 T01560050  RH  050%=      5-min Rain = 0
KGU1 111318Z 30002KT 16/05 A3034 RMK A01 T01560049  RH  050%=      5-min Rain = 0
KGU1 111319Z 31002KT 16/05 A3034 RMK A01 T01560050  RH  050%=      5-min Rain = 0
KGU1 111320Z 31002KT 16/05 A3034 RMK A01 T01560052  RH  051%=      5-min Rain = 0
KGU1 111321Z 32002KT 16/05 A3034 RMK A01 T01560054  RH  051%=      5-min Rain = 0
KGU1 111322Z 32003KT 16/06 A3034 RMK A01 T01570055  RH  051%=      5-min Rain = 0
KGU1 111323Z 32002KT 16/06 A3034 RMK A01 T01570055  RH  051%=      5-min Rain = 0
KGU1 111324Z 31002KT 16/06 A3034 RMK A01 T01580056  RH  051%=      5-min Rain = 0
KGU1 111325Z 32002KT 16/06 A3034 RMK A01 T01590056  RH  051%=      5-min Rain = 0
KGU1 111326Z 32002KT 16/06 A3034 RMK A01 T01600057  RH  051%=      5-min Rain = 0
KGU1 111327Z 32002KT 16/06 A3034 RMK A01 T01600056  RH  051%=      5-min Rain = 0
KGU1 111328Z 32002KT 16/06 A3034 RMK A01 T01610056  RH  051%=      5-min Rain = 0
KGU1 111329Z 32002KT 16/06 A3034 RMK A01 T01620057  RH  051%=      5-min Rain = 0
KGU1 111330Z 33002KT 16/06 A3034 RMK A01 T01630059  RH  051%=      5-min Rain = 0
KGU1 111331Z 33002KT 16/06 A3034 RMK A01 T01630058  RH  050%=      5-min Rain = 0
KGU1 111332Z 33002KT 16/06 A3034 RMK A01 T01640058  RH  050%=      5-min Rain = 0
KGU1 111333Z 33002KT 17/06 A3034 RMK A01 T01650060  RH  051%=      5-min Rain = 0
KGU1 111334Z 33002KT 17/06 A3034 RMK A01 T01660064  RH  052%=      5-min Rain = 0
KGU1 111335Z 34002KT 17/07 A3034 RMK A01 T01660065  RH  052%=      5-min Rain = 0
KGU1 111336Z 35002KT 17/07 A3034 RMK A01 T01670065  RH  052%=      5-min Rain = 0
KGU1 111337Z 35002KT 17/07 A3034 RMK A01 T01680067  RH  052%=      5-min Rain = 0
KGU1 111338Z 00002KT 17/07 A3034 RMK A01 T01690069  RH  052%=      5-min Rain = 0
KGU1 111339Z 01002KT 17/07 A3034 RMK A01 T01700069  RH  052%=      5-min Rain = 0
KGU1 111340Z 01003KT 17/07 A3034 RMK A01 T01710067  RH  051%=      5-min Rain = 0
KGU1 111341Z 02002KT 17/07 A3034 RMK A01 T01730069  RH  051%=      5-min Rain = 0
KGU1 111342Z 02003KT 17/07 A3034 RMK A01 T01740068  RH  050%=      5-min Rain = 0
KGU1 111343Z 02003KT 18/07 A3034 RMK A01 T01750069  RH  051%=      5-min Rain = 0
KGU1 111344Z 02003KT 18/07 A3034 RMK A01 T01750069  RH  050%=      5-min Rain = 0
KGU1 111345Z 02003KT 18/07 A3034 RMK A01 T01760070  RH  050%=      5-min Rain = 0
KGU1 111346Z 02002KT 18/07 A3034 RMK A01 T01770067  RH  049%=      5-min Rain = 0
KGU1 111347Z 02002KT 18/07 A3034 RMK A01 T01780071  RH  050%=      5-min Rain = 0
KGU1 111348Z 03002KT 18/07 A3034 RMK A01 T01790072  RH  050%=      5-min Rain = 0
KGU1 111349Z 02002KT 18/07 A3034 RMK A01 T01810072  RH  050%=      5-min Rain = 0
KGU1 111350Z 02003KT 18/07 A3034 RMK A01 T01820068  RH  048%=      5-min Rain = 0
KGU1 111351Z 03003KT 18/07 A3034 RMK A01 T01820065  RH  047%=      5-min Rain = 0
KGU1 111352Z 02002KT 18/07 A3034 RMK A01 T01830070  RH  048%=      5-min Rain = 0
KGU1 111353Z 02003KT 18/07 A3034 RMK A01 T01840067  RH  047%=      5-min Rain = 0
KGU1 111354Z 02004KT 18/07 A3034 RMK A01 T01840065  RH  046%=      5-min Rain = 0
KGU1 111355Z 02004KT 18/07 A3034 RMK A01 T01840066  RH  047%=      5-min Rain = 0
KGU1 111356Z 03003KT 18/07 A3035 RMK A01 T01840066  RH  047%=      5-min Rain = 0
KGU1 111357Z 04003KT 19/07 A3035 RMK A01 T01850069  RH  047%=      5-min Rain = 0
KGU1 111358Z 04003KT 19/06 A3035 RMK A01 T01860064  RH  046%=      5-min Rain = 0
KGU1 111359Z 04002KT 19/06 A3035 RMK A01 T01860064  RH  046%=      5-min Rain = 0
KGU1 111400Z 03003KT 19/06 A3035 RMK A01 T01860063  RH  045%=      5-min Rain = 0
KGU1 111401Z 03003KT 19/06 A3035 RMK A01 T01860063  RH  045%=      5-min Rain = 0
KGU1 111402Z 02002KT 19/06 A3035 RMK A01 T01870064  RH  045%=      5-min Rain = 0
KGU1 111403Z 03002KT 19/07 A3035 RMK A01 T01870065  RH  046%=      5-min Rain = 0
KGU1 111404Z 05002KT 19/06 A3035 RMK A01 T01880063  RH  045%=      5-min Rain = 0
KGU1 111405Z 06002KT 19/06 A3035 RMK A01 T01890061  RH  044%=      5-min Rain = 0
KGU1 111406Z 05002KT 19/06 A3035 RMK A01 T01900059  RH  043%=      5-min Rain = 0
KGU1 111407Z 05002KT 19/06 A3035 RMK A01 T01900059  RH  043%=      5-min Rain = 0
KGU1 111408Z 06001KT 19/06 A3035 RMK A01 T01910058  RH  042%=      5-min Rain = 0
KGU1 111409Z 05003KT 19/06 A3035 RMK A01 T01920058  RH  042%=      5-min Rain = 0
KGU1 111410Z 04002KT 19/06 A3035 RMK A01 T01920056  RH  041%=      5-min Rain = 0
KGU1 111411Z 04002KT 19/06 A3035 RMK A01 T01920056  RH  041%=      5-min Rain = 0
KGU1 111412Z 04003KT 19/06 A3035 RMK A01 T01920056  RH  042%=      5-min Rain = 0
KGU1 111413Z 03003KT 19/06 A3035 RMK A01 T01910059  RH  042%=      5-min Rain = 0
KGU1 111414Z 06002KT 19/06 A3035 RMK A01 T01920058  RH  042%=      5-min Rain = 0
KGU1 111415Z 07002KT 19/06 A3035 RMK A01 T01930058  RH  042%=      5-min Rain = 0
KGU1 111416Z 07002KT 19/06 A3035 RMK A01 T01940058  RH  041%=      5-min Rain = 0
KGU1 111417Z 07003KT 20/06 A3035 RMK A01 T01950059  RH  042%=      5-min Rain = 0
KGU1 111418Z 07004KT 20/06 A3035 RMK A01 T01950060  RH  042%=      5-min Rain = 0
KGU1 111419Z 07003KT 20/06 A3035 RMK A01 T01950059  RH  041%=      5-min Rain = 0
KGU1 111420Z 07003KT 20/06 A3035 RMK A01 T01950058  RH  041%=      5-min Rain = 0
KGU1 111421Z 07002KT 20/06 A3035 RMK A01 T01950058  RH  041%=      5-min Rain = 0
KGU1 111422Z 03003KT 20/06 A3035 RMK A01 T01950061  RH  042%=      5-min Rain = 0
KGU1 111423Z 03003KT 19/06 A3035 RMK A01 T01940058  RH  041%=      5-min Rain = 0
KGU1 111424Z 05002KT 19/06 A3035 RMK A01 T01940062  RH  042%=      5-min Rain = 0
KGU1 111425Z 06002KT 20/06 A3035 RMK A01 T01960059  RH  041%=      5-min Rain = 0
KGU1 111426Z 06003KT 20/06 A3035 RMK A01 T01960060  RH  042%=      5-min Rain = 0
KGU1 111427Z 06003KT 20/06 A3035 RMK A01 T01960060  RH  041%=      5-min Rain = 0
KGU1 111428Z 06002KT 20/06 A3035 RMK A01 T01960059  RH  041%=      5-min Rain = 0
KGU1 111429Z 07001KT 20/06 A3035 RMK A01 T01970058  RH  041%=      5-min Rain = 0
KGU1 111430Z 07001KT 20/06 A3035 RMK A01 T01970061  RH  041%=      5-min Rain = 0
KGU1 111431Z 07002KT 20/06 A3035 RMK A01 T01990059  RH  041%=      5-min Rain = 0
KGU1 111432Z 06003KT 20/06 A3035 RMK A01 T01990060  RH  041%=      5-min Rain = 0
KGU1 111433Z 06004KT 20/06 A3035 RMK A01 T01980061  RH  041%=      5-min Rain = 0
KGU1 111434Z 06003KT 20/06 A3035 RMK A01 T01970057  RH  040%=      5-min Rain = 0
KGU1 111435Z 05003KT 20/06 A3035 RMK A01 T01970060  RH  041%=      5-min Rain = 0
KGU1 111436Z 06003KT 20/06 A3035 RMK A01 T01970060  RH  041%=      5-min Rain = 0
KGU1 111437Z 05004KT 20/06 A3035 RMK A01 T01970059  RH  041%=      5-min Rain = 0
KGU1 111438Z 06003KT 20/06 A3035 RMK A01 T01970058  RH  041%=      5-min Rain = 0
KGU1 111439Z 06003KT 20/06 A3035 RMK A01 T01970060  RH  041%=      5-min Rain = 0
KGU1 111440Z 07003KT 20/06 A3035 RMK A01 T01980058  RH  040%=      5-min Rain = 0
KGU1 111441Z 07004KT 20/06 A3035 RMK A01 T01980058  RH  041%=      5-min Rain = 0
KGU1 111442Z 07003KT 20/06 A3035 RMK A01 T01980060  RH  041%=      5-min Rain = 0
KGU1 111443Z 07002KT 20/06 A3035 RMK A01 T01980058  RH  040%=      5-min Rain = 0
KGU1 111444Z 08002KT 20/06 A3035 RMK A01 T01980061  RH  041%=      5-min Rain = 0
KGU1 111445Z 09002KT 20/06 A3035 RMK A01 T02000060  RH  041%=      5-min Rain = 0
KGU1 111446Z 08004KT 20/06 A3035 RMK A01 T02010060  RH  040%=      5-min Rain = 0
KGU1 111447Z 08003KT 20/06 A3035 RMK A01 T02020058  RH  039%=      5-min Rain = 0
KGU1 111448Z 07000KT 20/06 A3035 RMK A01 T02020058  RH  039%=      5-min Rain = 0
KGU1 111449Z 07002KT 20/06 A3035 RMK A01 T02040060  RH  040%=      5-min Rain = 0
KGU1 111450Z 04003KT 20/06 A3035 RMK A01 T02040060  RH  039%=      5-min Rain = 0
KGU1 111451Z 03002KT 20/06 A3035 RMK A01 T02040059  RH  039%=      5-min Rain = 0
KGU1 111452Z 04003KT 21/06 A3035 RMK A01 T02050060  RH  039%=      5-min Rain = 0
KGU1 111453Z 08003KT 21/06 A3035 RMK A01 T02050060  RH  039%=      5-min Rain = 0
KGU1 111454Z 11004KT 21/06 A3035 RMK A01 T02070057  RH  038%=      5-min Rain = 0
KGU1 111455Z 09004KT 21/05 A3035 RMK A01 T02070054  RH  037%=      5-min Rain = 0
KGU1 111456Z 10003KT 21/05 A3035 RMK A01 T02060053  RH  037%=      5-min Rain = 0
KGU1 111457Z 09002KT 21/05 A3035 RMK A01 T02050052  RH  037%=      5-min Rain = 0
KGU1 111458Z 09001KT 21/05 A3035 RMK A01 T02050053  RH  037%=      5-min Rain = 0
KGU1 111459Z 11003KT 21/06 A3035 RMK A01 T02070057  RH  038%=      5-min Rain = 0
KGU1 111500Z 07003KT 21/06 A3035 RMK A01 T02070059  RH  039%=      5-min Rain = 0
KGU1 111501Z 04004KT 21/06 A3035 RMK A01 T02070057  RH  038%=      5-min Rain = 0
KGU1 111502Z 04004KT 21/06 A3035 RMK A01 T02060058  RH  039%=      5-min Rain = 0
KGU1 111503Z 05004KT 21/06 A3035 RMK A01 T02050055  RH  038%=      5-min Rain = 0
KGU1 111504Z 06003KT 21/06 A3035 RMK A01 T02050057  RH  039%=      5-min Rain = 0
KGU1 111505Z 05003KT 21/06 A3035 RMK A01 T02050056  RH  038%=      5-min Rain = 0
KGU1 111506Z 08002KT 21/06 A3035 RMK A01 T02050058  RH  039%=      5-min Rain = 0
KGU1 111507Z 09003KT 21/06 A3035 RMK A01 T02060058  RH  038%=      5-min Rain = 0
KGU1 111508Z 08003KT 21/06 A3035 RMK A01 T02070060  RH  039%=      5-min Rain = 0
KGU1 111509Z 07004KT 21/06 A3035 RMK A01 T02070057  RH  038%=      5-min Rain = 0
KGU1 111510Z 05004KT 21/06 A3036 RMK A01 T02060061  RH  039%=      5-min Rain = 0
KGU1 111511Z 07004KT 21/06 A3036 RMK A01 T02070060  RH  039%=      5-min Rain = 0
KGU1 111512Z 07003KT 21/06 A3036 RMK A01 T02070057  RH  038%=      5-min Rain = 0
KGU1 111513Z 09003KT 21/06 A3036 RMK A01 T02070063  RH  040%=      5-min Rain = 0
KGU1 111514Z 10003KT 21/06 A3036 RMK A01 T02090061  RH  039%=      5-min Rain = 0
KGU1 111515Z 08004KT 21/06 A3036 RMK A01 T02100061  RH  038%=      5-min Rain = 0
KGU1 111516Z 06005KT 21/06 A3036 RMK A01 T02100059  RH  038%=      5-min Rain = 0
KGU1 111517Z 06004KT 21/06 A3036 RMK A01 T02090057  RH  038%=      5-min Rain = 0
KGU1 111518Z 10004KT 21/06 A3036 RMK A01 T02080062  RH  039%=      5-min Rain = 0
KGU1 111519Z 08006KT 21/06 A3036 RMK A01 T02090061  RH  039%=      5-min Rain = 0
KGU1 111520Z 08004KT 21/06 A3036 RMK A01 T02090058  RH  038%=      5-min Rain = 0
KGU1 111521Z 06002KT 21/06 A3036 RMK A01 T02090062  RH  039%=      5-min Rain = 0
KGU1 111522Z 07004KT 21/06 A3036 RMK A01 T02100063  RH  039%=      5-min Rain = 0
KGU1 111523Z 07004KT 21/06 A3036 RMK A01 T02110059  RH  038%=      5-min Rain = 0
KGU1 111524Z 10005KT 21/06 A3036 RMK A01 T02110060  RH  038%=      5-min Rain = 0
KGU1 111525Z 08005KT 21/06 A3036 RMK A01 T02110062  RH  038%=      5-min Rain = 0
KGU1 111526Z 07004KT 21/06 A3036 RMK A01 T02110059  RH  038%=      5-min Rain = 0
KGU1 111527Z 08003KT 21/06 A3036 RMK A01 T02100058  RH  037%=      5-min Rain = 0
KGU1 111528Z 08003KT 21/06 A3036 RMK A01 T02100059  RH  038%=      5-min Rain = 0
KGU1 111529Z 08003KT 21/06 A3036 RMK A01 T02110061  RH  038%=      5-min Rain = 0
KGU1 111530Z 04005KT 21/06 A3036 RMK A01 T02120059  RH  037%=      5-min Rain = 0
KGU1 111531Z 07004KT 21/06 A3036 RMK A01 T02120060  RH  038%=      5-min Rain = 0
KGU1 111532Z 09003KT 21/06 A3036 RMK A01 T02120059  RH  037%=      5-min Rain = 0
KGU1 111533Z 10003KT 21/06 A3036 RMK A01 T02120060  RH  038%=      5-min Rain = 0
KGU1 111534Z 09004KT 21/06 A3036 RMK A01 T02130062  RH  038%=      5-min Rain = 0
KGU1 111535Z 08003KT 21/06 A3036 RMK A01 T02140059  RH  037%=      5-min Rain = 0
KGU1 111536Z 05004KT 21/06 A3036 RMK A01 T02140060  RH  037%=      5-min Rain = 0
KGU1 111537Z 04004KT 21/06 A3036 RMK A01 T02140060  RH  037%=      5-min Rain = 0
KGU1 111538Z 05003KT 21/07 A3036 RMK A01 T02140065  RH  039%=      5-min Rain = 0
KGU1 111539Z 08004KT 22/06 A3036 RMK A01 T02150062  RH  037%=      5-min Rain = 0
KGU1 111540Z 06007KT 22/06 A3036 RMK A01 T02160059  RH  037%=      5-min Rain = 0
KGU1 111541Z 06004KT 21/06 A3036 RMK A01 T02140060  RH  037%=      5-min Rain = 0
KGU1 111542Z 07002KT 21/06 A3036 RMK A01 T02140063  RH  038%=      5-min Rain = 0
KGU1 111543Z 06006KT 22/06 A3036 RMK A01 T02160061  RH  037%=      5-min Rain = 0
KGU1 111544Z 06005KT 22/06 A3036 RMK A01 T02170062  RH  037%=      5-min Rain = 0
KGU1 111545Z 08006KT 22/06 A3036 RMK A01 T02170058  RH  036%=      5-min Rain = 0
KGU1 111546Z 07003KT 22/06 A3036 RMK A01 T02170059  RH  036%=      5-min Rain = 0
KGU1 111547Z 08004KT 22/06 A3036 RMK A01 T02180060  RH  036%=      5-min Rain = 0
KGU1 111548Z 08004KT 22/06 A3036 RMK A01 T02190059  RH  036%=      5-min Rain = 0
KGU1 111549Z 07006KT 22/06 A3036 RMK A01 T02190064  RH  037%=      5-min Rain = 0
KGU1 111550Z 06002KT 22/06 A3036 RMK A01 T02210060  RH  036%=      5-min Rain = 0
KGU1 111551Z 08002KT 22/06 A3036 RMK A01 T02220061  RH  036%=      5-min Rain = 0
KGU1 111552Z 08005KT 22/06 A3036 RMK A01 T02230063  RH  036%=      5-min Rain = 0
KGU1 111553Z 09005KT 22/06 A3036 RMK A01 T02240057  RH  034%=      5-min Rain = 0
KGU1 111554Z 08004KT 22/06 A3036 RMK A01 T02220058  RH  035%=      5-min Rain = 0
KGU1 111555Z 08005KT 22/06 A3036 RMK A01 T02210059  RH  036%=      5-min Rain = 0
KGU1 111556Z 09007KT 22/06 A3036 RMK A01 T02190057  RH  035%=      5-min Rain = 0
KGU1 111557Z 10005KT 22/06 A3036 RMK A01 T02180060  RH  036%=      5-min Rain = 0
KGU1 111558Z 11004KT 22/06 A3036 RMK A01 T02180058  RH  036%=      5-min Rain = 0
KGU1 111559Z 12004KT 22/06 A3036 RMK A01 T02190061  RH  036%=      5-min Rain = 0
KGU1 111600Z 06005KT 22/06 A3036 RMK A01 T02210059  RH  035%=      5-min Rain = 0
KGU1 111601Z 09005KT 22/06 A3036 RMK A01 T02220060  RH  036%=      5-min Rain = 0
KGU1 111602Z 08004KT 22/06 A3036 RMK A01 T02230059  RH  035%=      5-min Rain = 0
KGU1 111603Z 05003KT 22/06 A3036 RMK A01 T02240059  RH  035%=      5-min Rain = 0
KGU1 111604Z 03004KT 22/06 A3036 RMK A01 T02240057  RH  034%=      5-min Rain = 0
KGU1 111605Z 02004KT 22/06 A3036 RMK A01 T02230055  RH  034%=      5-min Rain = 0
KGU1 111606Z 06001KT 22/06 A3036 RMK A01 T02230058  RH  035%=      5-min Rain = 0
KGU1 111607Z 09003KT 23/06 A3036 RMK A01 T02250057  RH  034%=      5-min Rain = 0
KGU1 111608Z 10006KT 23/06 A3036 RMK A01 T02260056  RH  034%=      5-min Rain = 0
KGU1 111609Z 10006KT 23/06 A3036 RMK A01 T02260058  RH  034%=      5-min Rain = 0
KGU1 111610Z 08006KT 23/05 A3036 RMK A01 T02260051  RH  032%=      5-min Rain = 0
KGU1 111611Z 07005KT 23/05 A3036 RMK A01 T02260050  RH  032%=      5-min Rain = 0
KGU1 111612Z 08003KT 23/05 A3036 RMK A01 T02260050  RH  032%=      5-min Rain = 0
KGU1 111613Z 08004KT 23/06 A3036 RMK A01 T02270058  RH  034%=      5-min Rain = 0
KGU1 111614Z 09006KT 23/05 A3036 RMK A01 T02290053  RH  032%=      5-min Rain = 0
KGU1 111615Z 10007KT 23/05 A3036 RMK A01 T02290053  RH  032%=      5-min Rain = 0
KGU1 111616Z 07005KT 23/05 A3036 RMK A01 T02280051  RH  032%=      5-min Rain = 0
KGU1 111617Z 10004KT 23/05 A3036 RMK A01 T02280052  RH  032%=      5-min Rain = 0
KGU1 111618Z 09006KT 23/05 A3036 RMK A01 T02270052  RH  032%=      5-min Rain = 0
KGU1 111619Z 09005KT 23/05 A3036 RMK A01 T02270048  RH  032%=      5-min Rain = 0
KGU1 111620Z 06005KT 23/05 A3036 RMK A01 T02280048  RH  032%=      5-min Rain = 0
KGU1 111621Z 07007KT 23/04 A3036 RMK A01 T02270044  RH  031%=      5-min Rain = 0
KGU1 111622Z 08004KT 23/05 A3036 RMK A01 T02260045  RH  031%=      5-min Rain = 0
KGU1 111623Z 09003KT 23/05 A3036 RMK A01 T02250047  RH  032%=      5-min Rain = 0
KGU1 111624Z 12005KT 23/05 A3036 RMK A01 T02250048  RH  032%=      5-min Rain = 0
KGU1 111625Z 09007KT 22/05 A3036 RMK A01 T02240045  RH  031%=      5-min Rain = 0
KGU1 111626Z 08006KT 22/04 A3036 RMK A01 T02240044  RH  031%=      5-min Rain = 0
KGU1 111627Z 08004KT 23/04 A3036 RMK A01 T02250041  RH  030%=      5-min Rain = 0
KGU1 111628Z 10004KT 22/04 A3036 RMK A01 T02240042  RH  031%=      5-min Rain = 0
KGU1 111629Z 10005KT 23/04 A3036 RMK A01 T02250040  RH  030%=      5-min Rain = 0
KGU1 111630Z 12004KT 23/05 A3036 RMK A01 T02250045  RH  031%=      5-min Rain = 0
KGU1 111631Z 11004KT 23/05 A3036 RMK A01 T02260048  RH  032%=      5-min Rain = 0
KGU1 111632Z 06003KT 23/05 A3036 RMK A01 T02290049  RH  031%=      5-min Rain = 0
KGU1 111633Z 05003KT 23/05 A3036 RMK A01 T02290045  RH  030%=      5-min Rain = 0
KGU1 111634Z 04004KT 23/05 A3036 RMK A01 T02300045  RH  030%=      5-min Rain = 0
KGU1 111635Z 02003KT 23/05 A3036 RMK A01 T02290045  RH  030%=      5-min Rain = 0
KGU1 111636Z 08005KT 23/05 A3036 RMK A01 T02290048  RH  031%=      5-min Rain = 0
KGU1 111637Z 09006KT 23/05 A3036 RMK A01 T02300048  RH  031%=      5-min Rain = 0
KGU1 111638Z 08005KT 23/04 A3036 RMK A01 T02310044  RH  030%=      5-min Rain = 0
KGU1 111639Z 06006KT 23/05 A3036 RMK A01 T02300049  RH  031%=      5-min Rain = 0
KGU1 111640Z 05004KT 23/05 A3036 RMK A01 T02300050  RH  031%=      5-min Rain = 0
KGU1 111641Z 09005KT 23/05 A3036 RMK A01 T02310048  RH  031%=      5-min Rain = 0
KGU1 111642Z 08004KT 23/05 A3036 RMK A01 T02310046  RH  030%=      5-min Rain = 0
KGU1 111643Z 08002KT 23/05 A3036 RMK A01 T02310048  RH  031%=      5-min Rain = 0
KGU1 111644Z 12003KT 23/05 A3036 RMK A01 T02320048  RH  031%=      5-min Rain = 0
KGU1 111645Z 11004KT 23/05 A3036 RMK A01 T02310046  RH  030%=      5-min Rain = 0
KGU1 111646Z 10004KT 23/05 A3036 RMK A01 T02300047  RH  031%=      5-min Rain = 0
KGU1 111647Z 10006KT 23/05 A3036 RMK A01 T02300051  RH  032%=      5-min Rain = 0
KGU1 111648Z 06005KT 23/05 A3036 RMK A01 T02310045  RH  030%=      5-min Rain = 0
KGU1 111649Z 02005KT 23/04 A3036 RMK A01 T02310039  RH  029%=      5-min Rain = 0
KGU1 111650Z 00007KT 23/04 A3036 RMK A01 T02320044  RH  030%=      5-min Rain = 0
KGU1 111651Z 36005KT 23/04 A3036 RMK A01 T02300043  RH  030%=      5-min Rain = 0
KGU1 111652Z 00004KT 23/05 A3036 RMK A01 T02290047  RH  031%=      5-min Rain = 0
KGU1 111653Z 06005KT 23/05 A3036 RMK A01 T02310050  RH  031%=      5-min Rain = 0
KGU1 111654Z 06005KT 23/05 A3036 RMK A01 T02330048  RH  031%=      5-min Rain = 0
KGU1 111655Z 08005KT 23/05 A3036 RMK A01 T02340046  RH  030%=      5-min Rain = 0
KGU1 111656Z 08004KT 23/04 A3036 RMK A01 T02340043  RH  029%=      5-min Rain = 0
KGU1 111657Z 05002KT 23/04 A3036 RMK A01 T02330038  RH  028%=      5-min Rain = 0
KGU1 111658Z 05004KT 23/04 A3036 RMK A01 T02330039  RH  029%=      5-min Rain = 0
KGU1 111659Z 04007KT 23/04 A3036 RMK A01 T02320041  RH  029%=      5-min Rain = 0
KGU1 111700Z 02006KT 23/04 A3036 RMK A01 T02310039  RH  029%=      5-min Rain = 0
KGU1 111701Z 01005KT 23/04 A3036 RMK A01 T02310040  RH  029%=      5-min Rain = 0
KGU1 111702Z 01005KT 23/04 A3036 RMK A01 T02310037  RH  029%=      5-min Rain = 0
KGU1 111703Z 00004KT 23/04 A3036 RMK A01 T02300038  RH  029%=      5-min Rain = 0
KGU1 111704Z 02002KT 23/04 A3036 RMK A01 T02310044  RH  030%=      5-min Rain = 0
KGU1 111705Z 04003KT 24/05 A3036 RMK A01 T02350048  RH  030%=      5-min Rain = 0
KGU1 111706Z 01003KT 24/05 A3036 RMK A01 T02380047  RH  029%=      5-min Rain = 0
KGU1 111707Z 03005KT 24/04 A3036 RMK A01 T02390043  RH  028%=      5-min Rain = 0
KGU1 111708Z 05005KT 24/05 A3036 RMK A01 T02380045  RH  029%=      5-min Rain = 0
KGU1 111709Z 07004KT 24/05 A3036 RMK A01 T02390051  RH  030%=      5-min Rain = 0
KGU1 111710Z 10005KT 24/05 A3036 RMK A01 T02410053  RH  030%=      5-min Rain = 0
KGU1 111711Z 08005KT 24/05 A3036 RMK A01 T02420050  RH  029%=      5-min Rain = 0
KGU1 111712Z 04005KT 24/05 A3036 RMK A01 T02420051  RH  029%=      5-min Rain = 0
KGU1 111713Z 05005KT 24/05 A3036 RMK A01 T02420046  RH  029%=      5-min Rain = 0
KGU1 111714Z 03003KT 24/04 A3036 RMK A01 T02400042  RH  028%=      5-min Rain = 0
KGU1 111715Z 05002KT 24/05 A3036 RMK A01 T02400047  RH  029%=      5-min Rain = 0
KGU1 111716Z 07005KT 24/04 A3036 RMK A01 T02400039  RH  027%=      5-min Rain = 0
KGU1 111717Z 07002KT 24/04 A3036 RMK A01 T02390038  RH  027%=      5-min Rain = 0
KGU1 111718Z 04007KT 24/04 A3036 RMK A01 T02380037  RH  027%=      5-min Rain = 0
KGU1 111719Z 05008KT 24/04 A3036 RMK A01 T02400042  RH  028%=      5-min Rain = 0
KGU1 111720Z 07006KT 24/04 A3036 RMK A01 T02400040  RH  028%=      5-min Rain = 0
KGU1 111721Z 05004KT 24/03 A3036 RMK A01 T02390033  RH  026%=      5-min Rain = 0
KGU1 111722Z 03004KT 24/04 A3036 RMK A01 T02390036  RH  027%=      5-min Rain = 0
KGU1 111723Z 07005G10KT 24/04 A3036 RMK A01 T02390041  RH  028%=      5-min Rain = 0
KGU1 111724Z 09009KT 24/04 A3036 RMK A01 T02400039  RH  027%=      5-min Rain = 0
KGU1 111725Z 08008KT 24/04 A3036 RMK A01 T02390037  RH  027%=      5-min Rain = 0
KGU1 111726Z 10008KT 24/04 A3036 RMK A01 T02370039  RH  028%=      5-min Rain = 0
KGU1 111727Z 08008KT 24/04 A3036 RMK A01 T02370041  RH  028%=      5-min Rain = 0
KGU1 111728Z 07006KT 24/04 A3036 RMK A01 T02360043  RH  029%=      5-min Rain = 0
KGU1 111729Z 06003KT 24/04 A3036 RMK A01 T02350041  RH  029%=      5-min Rain = 0
KGU1 111730Z 10003KT 24/04 A3036 RMK A01 T02360044  RH  029%=      5-min Rain = 0
KGU1 111731Z 08007KT 24/04 A3036 RMK A01 T02380044  RH  029%=      5-min Rain = 0
KGU1 111732Z 09006KT 24/04 A3036 RMK A01 T02380044  RH  029%=      5-min Rain = 0
KGU1 111733Z 08005KT 24/05 A3036 RMK A01 T02380049  RH  030%=      5-min Rain = 0
KGU1 111734Z 08005KT 24/05 A3036 RMK A01 T02420049  RH  029%=      5-min Rain = 0
KGU1 111735Z 06007KT 24/04 A3036 RMK A01 T02440039  RH  027%=      5-min Rain = 0
KGU1 111736Z 03006KT 24/04 A3036 RMK A01 T02430038  RH  027%=      5-min Rain = 0
KGU1 111737Z 06006KT 24/03 A3036 RMK A01 T02420032  RH  026%=      5-min Rain = 0
KGU1 111738Z 06003KT 24/04 A3036 RMK A01 T02410035  RH  027%=      5-min Rain = 0
KGU1 111739Z 08003KT 24/03 A3036 RMK A01 T02420031  RH  026%=      5-min Rain = 0
KGU1 111740Z 06006KT 24/04 A3036 RMK A01 T02430037  RH  027%=      5-min Rain = 0
KGU1 111741Z 07008KT 24/04 A3036 RMK A01 T02440036  RH  026%=      5-min Rain = 0
KGU1 111742Z 07005KT 24/04 A3036 RMK A01 T02440035  RH  026%=      5-min Rain = 0
KGU1 111743Z 05005KT 25/04 A3036 RMK A01 T02450038  RH  026%=      5-min Rain = 0
KGU1 111744Z 05006KT 25/04 A3036 RMK A01 T02450037  RH  026%=      5-min Rain = 0
KGU1 111745Z 04005KT 25/04 A3036 RMK A01 T02450038  RH  026%=      5-min Rain = 0
KGU1 111746Z 05005KT 25/04 A3036 RMK A01 T02450038  RH  026%=      5-min Rain = 0
KGU1 111747Z 04007KT 25/03 A3036 RMK A01 T02450034  RH  026%=      5-min Rain = 0
KGU1 111748Z 07005KT 24/04 A3036 RMK A01 T02440036  RH  026%=      5-min Rain = 0
KGU1 111749Z 05006KT 24/04 A3036 RMK A01 T02430041  RH  027%=      5-min Rain = 0
KGU1 111750Z 06006KT 24/04 A3036 RMK A01 T02430041  RH  027%=      5-min Rain = 0
KGU1 111751Z 07007KT 24/04 A3036 RMK A01 T02440040  RH  027%=      5-min Rain = 0
KGU1 111752Z 10008KT 24/04 A3036 RMK A01 T02440042  RH  027%=      5-min Rain = 0
KGU1 111753Z 09007G12KT 25/04 A3036 RMK A01 T02450038  RH  027%=      5-min Rain = 0
KGU1 111754Z 11008KT 24/04 A3036 RMK A01 T02440040  RH  027%=      5-min Rain = 0
KGU1 111755Z 11005KT 24/04 A3036 RMK A01 T02430038  RH  027%=      5-min Rain = 0
KGU1 111756Z 13003KT 24/04 A3036 RMK A01 T02420041  RH  027%=      5-min Rain = 0
KGU1 111757Z 12005KT 24/04 A3036 RMK A01 T02430044  RH  028%=      5-min Rain = 0
KGU1 111758Z 09008KT 25/04 A3036 RMK A01 T02460043  RH  027%=      5-min Rain = 0
KGU1 111759Z 09010KT 25/04 A3036 RMK A01 T02460036  RH  026%=      5-min Rain = 0
KGU1 111800Z 08009KT 25/03 A3036 RMK A01 T02450029  RH  025%=      5-min Rain = 0
KGU1 111801Z 08006KT 25/02 A3036 RMK A01 T02450024  RH  024%=      5-min Rain = 0
KGU1 111802Z 06004KT 25/03 A3036 RMK A01 T02460031  RH  025%=      5-min Rain = 0
KGU1 111803Z 09006KT 25/04 A3035 RMK A01 T02480036  RH  026%=      5-min Rain = 0
KGU1 111804Z 08010KT 25/04 A3035 RMK A01 T02480041  RH  026%=      5-min Rain = 0
KGU1 111805Z 10006KT 25/04 A3035 RMK A01 T02460038  RH  026%=      5-min Rain = 0
KGU1 111806Z 11004KT 24/04 A3035 RMK A01 T02430039  RH  027%=      5-min Rain = 0
KGU1 111807Z 10007KT 24/04 A3035 RMK A01 T02420039  RH  027%=      5-min Rain = 0
KGU1 111808Z 08006KT 24/04 A3035 RMK A01 T02420042  RH  028%=      5-min Rain = 0
KGU1 111809Z 06006KT 24/04 A3035 RMK A01 T02430042  RH  027%=      5-min Rain = 0
KGU1 111810Z 06007KT 25/04 A3035 RMK A01 T02460040  RH  027%=      5-min Rain = 0
KGU1 111811Z 10009KT 25/05 A3035 RMK A01 T02470045  RH  027%=      5-min Rain = 0
KGU1 111812Z 10006KT 25/04 A3035 RMK A01 T02470044  RH  027%=      5-min Rain = 0
KGU1 111813Z 07004KT 25/04 A3035 RMK A01 T02470040  RH  027%=      5-min Rain = 0
KGU1 111814Z 06006KT 25/03 A3035 RMK A01 T02470031  RH  025%=      5-min Rain = 0
KGU1 111815Z 05006KT 25/03 A3035 RMK A01 T02480027  RH  024%=      5-min Rain = 0
KGU1 111816Z 06006KT 25/03 A3035 RMK A01 T02480030  RH  024%=      5-min Rain = 0
KGU1 111817Z 06005KT 25/03 A3035 RMK A01 T02500029  RH  024%=      5-min Rain = 0
KGU1 111818Z 08006KT 25/03 A3035 RMK A01 T02520026  RH  023%=      5-min Rain = 0
KGU1 111819Z 07005KT 25/02 A3035 RMK A01 T02520021  RH  022%=      5-min Rain = 0
KGU1 111820Z 05003KT 25/02 A3035 RMK A01 T02500022  RH  023%=      5-min Rain = 0
KGU1 111821Z 08002KT 25/03 A3035 RMK A01 T02500028  RH  024%=      5-min Rain = 0
KGU1 111822Z 11007KT 25/03 A3035 RMK A01 T02500034  RH  025%=      5-min Rain = 0
KGU1 111823Z 07006KT 25/04 A3035 RMK A01 T02510036  RH  025%=      5-min Rain = 0
KGU1 111824Z 07007KT 25/03 A3035 RMK A01 T02540030  RH  024%=      5-min Rain = 0
KGU1 111825Z 07006KT 26/04 A3035 RMK A01 T02550036  RH  025%=      5-min Rain = 0
KGU1 111826Z 06008KT 26/03 A3035 RMK A01 T02570034  RH  024%=      5-min Rain = 0
KGU1 111827Z 04007KT 26/04 A3035 RMK A01 T02550036  RH  025%=      5-min Rain = 0
KGU1 111828Z 01006KT 25/03 A3035 RMK A01 T02500030  RH  024%=      5-min Rain = 0
KGU1 111829Z 35003KT 25/03 A3035 RMK A01 T02460033  RH  025%=      5-min Rain = 0
KGU1 111830Z 15005KT 25/04 A3035 RMK A01 T02460042  RH  027%=      5-min Rain = 0
KGU1 111831Z 10007KT 25/04 A3034 RMK A01 T02490044  RH  027%=      5-min Rain = 0
KGU1 111832Z 06008KT 25/04 A3035 RMK A01 T02500042  RH  026%=      5-min Rain = 0
KGU1 111833Z 05007KT 25/04 A3035 RMK A01 T02510044  RH  027%=      5-min Rain = 0
KGU1 111834Z 06009KT 25/04 A3035 RMK A01 T02510037  RH  025%=      5-min Rain = 0
KGU1 111835Z 06007KT 25/04 A3035 RMK A01 T02480039  RH  026%=      5-min Rain = 0
KGU1 111836Z 08005KT 25/04 A3034 RMK A01 T02460037  RH  026%=      5-min Rain = 0
KGU1 111837Z 08007KT 25/04 A3034 RMK A01 T02450041  RH  027%=      5-min Rain = 0
KGU1 111838Z 05009KT 25/04 A3034 RMK A01 T02450038  RH  026%=      5-min Rain = 0
KGU1 111839Z 02005KT 24/04 A3034 RMK A01 T02440036  RH  026%=      5-min Rain = 0
KGU1 111840Z 07007KT 24/04 A3034 RMK A01 T02420036  RH  026%=      5-min Rain = 0
KGU1 111841Z 10004KT 24/04 A3034 RMK A01 T02420038  RH  027%=      5-min Rain = 0
KGU1 111842Z 10003KT 24/04 A3034 RMK A01 T02430039  RH  027%=      5-min Rain = 0
KGU1 111843Z 05005KT 25/04 A3034 RMK A01 T02450041  RH  027%=      5-min Rain = 0
KGU1 111844Z 04003KT 25/04 A3034 RMK A01 T02460040  RH  027%=      5-min Rain = 0
KGU1 111845Z 05007KT 25/04 A3034 RMK A01 T02480044  RH  027%=      5-min Rain = 0
KGU1 111846Z 06006KT 25/05 A3034 RMK A01 T02500046  RH  027%=      5-min Rain = 0
KGU1 111847Z 06007KT 25/04 A3034 RMK A01 T02520040  RH  026%=      5-min Rain = 0
KGU1 111848Z 06005KT 25/04 A3034 RMK A01 T02510043  RH  026%=      5-min Rain = 0
KGU1 111849Z 09007KT 25/04 A3034 RMK A01 T02510042  RH  026%=      5-min Rain = 0
KGU1 111850Z 09007KT 25/04 A3034 RMK A01 T02500038  RH  026%=      5-min Rain = 0
KGU1 111851Z 10009KT 25/04 A3034 RMK A01 T02500040  RH  026%=      5-min Rain = 0
KGU1 111852Z 09008KT 25/04 A3034 RMK A01 T02500041  RH  026%=      5-min Rain = 0
KGU1 111853Z 10005KT 25/04 A3034 RMK A01 T02490038  RH  026%=      5-min Rain = 0
KGU1 111854Z 10005KT 25/04 A3034 RMK A01 T02490039  RH  026%=      5-min Rain = 0
KGU1 111855Z 06007KT 25/04 A3034 RMK A01 T02500044  RH  027%=      5-min Rain = 0
KGU1 111856Z 06003KT 25/04 A3034 RMK A01 T02520042  RH  026%=      5-min Rain = 0
KGU1 111857Z 09007KT 25/04 A3034 RMK A01 T02530040  RH  026%=      5-min Rain = 0
KGU1 111858Z 08009KT 25/04 A3034 RMK A01 T02530042  RH  026%=      5-min Rain = 0
KGU1 111859Z 08008KT 25/04 A3034 RMK A01 T02530040  RH  026%=      5-min Rain = 0
KGU1 111900Z 09006KT 25/04 A3034 RMK A01 T02520040  RH  026%=      5-min Rain = 0
KGU1 111901Z 11005KT 25/04 A3034 RMK A01 T02530038  RH  025%=      5-min Rain = 0
KGU1 111902Z 07005KT 25/04 A3034 RMK A01 T02530041  RH  026%=      5-min Rain = 0
KGU1 111903Z 04006KT 25/04 A3034 RMK A01 T02520044  RH  026%=      5-min Rain = 0
KGU1 111904Z 06005KT 25/04 A3034 RMK A01 T02510042  RH  026%=      5-min Rain = 0
KGU1 111905Z 08007KT 25/04 A3034 RMK A01 T02510040  RH  026%=      5-min Rain = 0
KGU1 111906Z 07004KT 25/04 A3034 RMK A01 T02500038  RH  026%=      5-min Rain = 0
KGU1 111907Z 13004KT 25/04 A3034 RMK A01 T02510037  RH  025%=      5-min Rain = 0
KGU1 111908Z 15001KT 25/04 A3034 RMK A01 T02510037  RH  025%=      5-min Rain = 0
KGU1 111909Z 09003KT 25/04 A3034 RMK A01 T02510044  RH  026%=      5-min Rain = 0
KGU1 111910Z 10005KT 25/04 A3034 RMK A01 T02540044  RH  026%=      5-min Rain = 0
KGU1 111911Z 08007KT 26/04 A3034 RMK A01 T02560044  RH  026%=      5-min Rain = 0
KGU1 111912Z 08009KT 26/04 A3034 RMK A01 T02570042  RH  025%=      5-min Rain = 0
KGU1 111913Z 08007KT 26/04 A3034 RMK A01 T02560042  RH  026%=      5-min Rain = 0
KGU1 111914Z 06007KT 26/05 A3034 RMK A01 T02570048  RH  026%=      5-min Rain = 0
KGU1 111915Z 07008KT 26/05 A3034 RMK A01 T02590045  RH  025%=      5-min Rain = 0
KGU1 111916Z 06009KT 26/04 A3034 RMK A01 T02580042  RH  025%=      5-min Rain = 0
KGU1 111917Z 06008KT 26/05 A3034 RMK A01 T02560045  RH  026%=      5-min Rain = 0
KGU1 111918Z 06006KT 26/04 A3034 RMK A01 T02550044  RH  026%=      5-min Rain = 0
KGU1 111919Z 06005KT 26/04 A3034 RMK A01 T02550043  RH  026%=      5-min Rain = 0
KGU1 111920Z 05006KT 25/04 A3034 RMK A01 T02540043  RH  026%=      5-min Rain = 0
KGU1 111921Z 00005KT 25/04 A3034 RMK A01 T02510037  RH  025%=      5-min Rain = 0
KGU1 111922Z 36004KT 25/04 A3033 RMK A01 T02480039  RH  026%=      5-min Rain = 0
KGU1 111923Z 04002KT 25/04 A3033 RMK A01 T02480038  RH  026%=      5-min Rain = 0
KGU1 111924Z 09005KT 25/04 A3033 RMK A01 T02490039  RH  026%=      5-min Rain = 0
KGU1 111925Z 09006G13KT 25/04 A3033 RMK A01 T02510044  RH  027%=      5-min Rain = 0
KGU1 111926Z 09010KT 26/04 A3033 RMK A01 T02550039  RH  025%=      5-min Rain = 0
KGU1 111927Z 10010KT 26/04 A3033 RMK A01 T02550038  RH  025%=      5-min Rain = 0
KGU1 111928Z 10009KT 25/04 A3033 RMK A01 T02540038  RH  025%=      5-min Rain = 0
KGU1 111929Z 06007KT 25/04 A3033 RMK A01 T02540044  RH  026%=      5-min Rain = 0
KGU1 111930Z 03009KT 26/04 A3033 RMK A01 T02560040  RH  025%=      5-min Rain = 0
KGU1 111931Z 05004KT 25/04 A3033 RMK A01 T02530038  RH  025%=      5-min Rain = 0
KGU1 111932Z 03006KT 25/05 A3033 RMK A01 T02530045  RH  026%=      5-min Rain = 0
KGU1 111933Z 02006KT 25/04 A3033 RMK A01 T02540043  RH  026%=      5-min Rain = 0
KGU1 111934Z 03002KT 26/04 A3033 RMK A01 T02550042  RH  026%=      5-min Rain = 0
KGU1 111935Z 09005KT 26/04 A3033 RMK A01 T02560043  RH  026%=      5-min Rain = 0
KGU1 111936Z 07007G13KT 26/04 A3033 RMK A01 T02590044  RH  025%=      5-min Rain = 0
KGU1 111937Z 06004KT 26/05 A3033 RMK A01 T02610046  RH  025%=      5-min Rain = 0
KGU1 111938Z 10006KT 26/04 A3033 RMK A01 T02620041  RH  024%=      5-min Rain = 0
KGU1 111939Z 09008G14KT 26/04 A3033 RMK A01 T02620044  RH  025%=      5-min Rain = 0
KGU1 111940Z 08012KT 26/04 A3033 RMK A01 T02600039  RH  024%=      5-min Rain = 0
KGU1 111941Z 09010KT 26/04 A3033 RMK A01 T02570041  RH  025%=      5-min Rain = 0
KGU1 111942Z 08007KT 26/04 A3033 RMK A01 T02550043  RH  026%=      5-min Rain = 0
KGU1 111943Z 06008KT 26/04 A3033 RMK A01 T02550041  RH  025%=      5-min Rain = 0
KGU1 111944Z 06007KT 25/04 A3032 RMK A01 T02530044  RH  026%=      5-min Rain = 0
KGU1 111945Z 10007KT 25/04 A3032 RMK A01 T02530043  RH  026%=      5-min Rain = 0
KGU1 111946Z 09008KT 25/04 A3032 RMK A01 T02540043  RH  026%=      5-min Rain = 0
KGU1 111947Z 07007KT 26/05 A3032 RMK A01 T02550048  RH  027%=      5-min Rain = 0
KGU1 111948Z 05006KT 26/04 A3032 RMK A01 T02590044  RH  025%=      5-min Rain = 0
KGU1 111949Z 08004KT 26/04 A3032 RMK A01 T02600041  RH  025%=      5-min Rain = 0
KGU1 111950Z 09002KT 26/04 A3032 RMK A01 T02600040  RH  024%=      5-min Rain = 0
KGU1 111951Z 11007G14KT 26/05 A3032 RMK A01 T02590045  RH  026%=      5-min Rain = 0
KGU1 111952Z 09005G10KT 26/05 A3032 RMK A01 T02590045  RH  026%=      5-min Rain = 0
KGU1 111953Z 08006KT 26/05 A3032 RMK A01 T02600047  RH  026%=      5-min Rain = 0
KGU1 111954Z 07007KT 26/05 A3032 RMK A01 T02610045  RH  025%=      5-min Rain = 0
KGU1 111955Z 10006KT 26/05 A3032 RMK A01 T02610048  RH  026%=      5-min Rain = 0
KGU1 111956Z 11008KT 26/05 A3032 RMK A01 T02620048  RH  026%=      5-min Rain = 0
KGU1 111957Z 11008KT 26/05 A3032 RMK A01 T02630046  RH  025%=      5-min Rain = 0
KGU1 111958Z 11008KT 26/05 A3032 RMK A01 T02620046  RH  025%=      5-min Rain = 0
KGU1 111959Z 12007KT 26/05 A3032 RMK A01 T02620047  RH  025%=      5-min Rain = 0
KGU1 112000Z 13005KT 26/05 A3032 RMK A01 T02610048  RH  026%=      5-min Rain = 0
KGU1 112001Z 09004KT 26/05 A3032 RMK A01 T02620047  RH  025%=      5-min Rain = 0
KGU1 112002Z 07004KT 26/05 A3032 RMK A01 T02630047  RH  025%=      5-min Rain = 0
KGU1 112003Z 05004KT 26/04 A3032 RMK A01 T02630044  RH  025%=      5-min Rain = 0
KGU1 112004Z 06007KT 26/04 A3032 RMK A01 T02610043  RH  025%=      5-min Rain = 0
KGU1 112005Z 11006KT 26/05 A3032 RMK A01 T02590046  RH  026%=      5-min Rain = 0
KGU1 112006Z 10009KT 26/05 A3032 RMK A01 T02600047  RH  026%=      5-min Rain = 0
KGU1 112007Z 10010KT 26/04 A3032 RMK A01 T02610044  RH  025%=      5-min Rain = 0
KGU1 112008Z 10008KT 26/04 A3032 RMK A01 T02580041  RH  025%=      5-min Rain = 0
KGU1 112009Z 10006KT 26/04 A3032 RMK A01 T02550044  RH  026%=      5-min Rain = 0
KGU1 112010Z 06007KT 26/04 A3032 RMK A01 T02550043  RH  026%=      5-min Rain = 0
KGU1 112011Z 06006KT 26/04 A3032 RMK A01 T02560041  RH  025%=      5-min Rain = 0
KGU1 112012Z 07005KT 26/04 A3032 RMK A01 T02560044  RH  026%=      5-min Rain = 0
KGU1 112013Z 05007KT 26/04 A3032 RMK A01 T02590044  RH  025%=      5-min Rain = 0
KGU1 112014Z 06006KT 26/04 A3031 RMK A01 T02600042  RH  025%=      5-min Rain = 0
KGU1 112015Z 07009KT 26/04 A3031 RMK A01 T02610040  RH  024%=      5-min Rain = 0
KGU1 112016Z 06007KT 26/04 A3031 RMK A01 T02610041  RH  025%=      5-min Rain = 0
KGU1 112017Z 05005KT 26/04 A3031 RMK A01 T02620039  RH  024%=      5-min Rain = 0
KGU1 112018Z 06004KT 26/04 A3031 RMK A01 T02600037  RH  024%=      5-min Rain = 0
KGU1 112019Z 05002KT 26/04 A3031 RMK A01 T02610040  RH  024%=      5-min Rain = 0
KGU1 112020Z 04004KT 26/04 A3031 RMK A01 T02610036  RH  024%=      5-min Rain = 0
KGU1 112021Z 07005G10KT 26/04 A3031 RMK A01 T02610040  RH  024%=      5-min Rain = 0
KGU1 112022Z 05009KT 26/05 A3031 RMK A01 T02610047  RH  026%=      5-min Rain = 0
KGU1 112023Z 04007KT 26/05 A3031 RMK A01 T02600045  RH  025%=      5-min Rain = 0
KGU1 112024Z 06008KT 26/05 A3031 RMK A01 T02600046  RH  026%=      5-min Rain = 0
KGU1 112025Z 07008KT 26/05 A3031 RMK A01 T02610045  RH  025%=      5-min Rain = 0
KGU1 112026Z 08010KT 26/04 A3031 RMK A01 T02610043  RH  025%=      5-min Rain = 0
KGU1 112027Z 07005KT 26/04 A3031 RMK A01 T02600040  RH  025%=      5-min Rain = 0
KGU1 112028Z 10006KT 26/04 A3031 RMK A01 T02580044  RH  025%=      5-min Rain = 0
KGU1 112029Z 11007KT 26/04 A3031 RMK A01 T02590044  RH  025%=      5-min Rain = 0
KGU1 112030Z 11011KT 26/04 A3031 RMK A01 T02600044  RH  025%=      5-min Rain = 0
KGU1 112031Z 11011KT 26/04 A3031 RMK A01 T02610042  RH  025%=      5-min Rain = 0
KGU1 112032Z 11007KT 26/04 A3031 RMK A01 T02600039  RH  024%=      5-min Rain = 0
KGU1 112033Z 12006KT 26/04 A3031 RMK A01 T02590042  RH  025%=      5-min Rain = 0
KGU1 112034Z 14005KT 26/05 A3031 RMK A01 T02590046  RH  026%=      5-min Rain = 0
KGU1 112035Z 12007KT 26/04 A303 RMK A01 T02600042  RH  025%=      5-min Rain = 0
KGU1 112036Z 09009KT 26/04 A303 RMK A01 T02590042  RH  025%=      5-min Rain = 0
KGU1 112037Z 10008KT 26/04 A303 RMK A01 T02600039  RH  024%=      5-min Rain = 0
KGU1 112038Z 10011KT 26/04 A303 RMK A01 T02590041  RH  025%=      5-min Rain = 0
KGU1 112039Z 11008KT 26/04 A303 RMK A01 T02600041  RH  025%=      5-min Rain = 0
KGU1 112040Z 11009KT 26/04 A303 RMK A01 T02590041  RH  025%=      5-min Rain = 0
KGU1 112041Z 10008KT 26/04 A303 RMK A01 T02590044  RH  025%=      5-min Rain = 0
KGU1 112042Z 09009KT 26/04 A303 RMK A01 T02610039  RH  024%=      5-min Rain = 0
KGU1 112043Z 08007KT 26/04 A303 RMK A01 T02590039  RH  024%=      5-min Rain = 0
KGU1 112044Z 09009KT 26/04 A303 RMK A01 T02580041  RH  025%=      5-min Rain = 0
KGU1 112045Z 08007KT 26/04 A303 RMK A01 T02590041  RH  025%=      5-min Rain = 0
KGU1 112046Z 09011KT 26/04 A303 RMK A01 T02580041  RH  025%=      5-min Rain = 0
KGU1 112047Z 10009KT 26/04 A303 RMK A01 T02580042  RH  025%=      5-min Rain = 0
KGU1 112048Z 11008KT 26/04 A303 RMK A01 T02580043  RH  025%=      5-min Rain = 0
KGU1 112049Z 08010KT 26/04 A303 RMK A01 T02600040  RH  024%=      5-min Rain = 0
KGU1 112050Z 09007KT 26/04 A303 RMK A01 T02600040  RH  025%=      5-min Rain = 0
KGU1 112051Z 08006KT 26/04 A303 RMK A01 T02590040  RH  025%=      5-min Rain = 0
KGU1 112052Z 09006KT 26/04 A303 RMK A01 T02580038  RH  024%=      5-min Rain = 0
KGU1 112053Z 11006KT 26/04 A303 RMK A01 T02580038  RH  024%=      5-min Rain = 0
KGU1 112054Z 10007KT 26/04 A303 RMK A01 T02570038  RH  025%=      5-min Rain = 0
KGU1 112055Z 10006KT 26/04 A303 RMK A01 T02580038  RH  024%=      5-min Rain = 0
KGU1 112056Z 10004KT 26/04 A303 RMK A01 T02580037  RH  024%=      5-min Rain = 0
KGU1 112057Z 08001KT 26/04 A303 RMK A01 T02580035  RH  024%=      5-min Rain = 0
KGU1 112058Z 10006KT 26/04 A303 RMK A01 T02590037  RH  024%=      5-min Rain = 0
KGU1 112059Z 08007G13KT 26/04 A303 RMK A01 T02580042  RH  025%=      5-min Rain = 0
KGU1 112100Z 08010KT 26/04 A303 RMK A01 T02600038  RH  024%=      5-min Rain = 0
KGU1 112101Z 09008KT 26/04 A303 RMK A01 T02610039  RH  024%=      5-min Rain = 0
KGU1 112102Z 07008KT 26/04 A303 RMK A01 T02600039  RH  024%=      5-min Rain = 0
KGU1 112103Z 08009KT 26/04 A303 RMK A01 T02610039  RH  024%=      5-min Rain = 0
KGU1 112104Z 10007KT 26/04 A303 RMK A01 T02630037  RH  024%=      5-min Rain = 0
KGU1 112105Z 10008KT 26/04 A3029 RMK A01 T02620038  RH  024%=      5-min Rain = 0
KGU1 112106Z 06007KT 26/04 A303 RMK A01 T02620039  RH  024%=      5-min Rain = 0
KGU1 112107Z 04006KT 26/03 A303 RMK A01 T02630033  RH  023%=      5-min Rain = 0
KGU1 112108Z 05007KT 26/04 A3029 RMK A01 T02610036  RH  024%=      5-min Rain = 0
KGU1 112109Z 05009KT 26/04 A3029 RMK A01 T02620036  RH  023%=      5-min Rain = 0
KGU1 112110Z 04008KT 26/03 A3029 RMK A01 T02610034  RH  023%=      5-min Rain = 0
KGU1 112111Z 02008KT 26/04 A3029 RMK A01 T02600036  RH  024%=      5-min Rain = 0
KGU1 112112Z 01005KT 26/04 A3029 RMK A01 T02590036  RH  024%=      5-min Rain = 0
KGU1 112113Z 05003KT 26/04 A3029 RMK A01 T02600037  RH  024%=      5-min Rain = 0
KGU1 112114Z 06005KT 26/04 A3029 RMK A01 T02600035  RH  024%=      5-min Rain = 0
KGU1 112115Z 09007KT 26/04 A3029 RMK A01 T02600038  RH  024%=      5-min Rain = 0
KGU1 112116Z 09006KT 26/04 A3029 RMK A01 T02600036  RH  024%=      5-min Rain = 0
KGU1 112117Z 07005KT 26/04 A3029 RMK A01 T02600038  RH  024%=      5-min Rain = 0
KGU1 112118Z 08008KT 26/04 A3029 RMK A01 T02610038  RH  024%=      5-min Rain = 0
KGU1 112119Z 09010KT 26/04 A3029 RMK A01 T02610036  RH  024%=      5-min Rain = 0
KGU1 112120Z 09009KT 26/04 A3029 RMK A01 T02620036  RH  024%=      5-min Rain = 0
KGU1 112121Z 09009KT 26/03 A3029 RMK A01 T02620034  RH  023%=      5-min Rain = 0
KGU1 112122Z 09007KT 26/03 A3029 RMK A01 T02610032  RH  023%=      5-min Rain = 0
KGU1 112123Z 08006KT 26/04 A3029 RMK A01 T02610036  RH  024%=      5-min Rain = 0
KGU1 112124Z 07004KT 26/03 A3029 RMK A01 T02620034  RH  023%=      5-min Rain = 0
KGU1 112125Z 05005KT 26/03 A3029 RMK A01 T02630033  RH  023%=      5-min Rain = 0
KGU1 112126Z 04005KT 26/03 A3029 RMK A01 T02620033  RH  023%=      5-min Rain = 0
KGU1 112127Z 02003KT 26/03 A3028 RMK A01 T02620032  RH  023%=      5-min Rain = 0
KGU1 112128Z 05004KT 26/03 A3028 RMK A01 T02630033  RH  023%=      5-min Rain = 0
KGU1 112129Z 06008KT 26/04 A3028 RMK A01 T02640037  RH  023%=      5-min Rain = 0
KGU1 112130Z 06009KT 26/03 A3028 RMK A01 T02640034  RH  023%=      5-min Rain = 0
KGU1 112131Z 09007KT 26/03 A3028 RMK A01 T02640031  RH  023%=      5-min Rain = 0
KGU1 112132Z 07005KT 26/04 A3028 RMK A01 T02630035  RH  023%=      5-min Rain = 0
KGU1 112133Z 08004KT 26/03 A3028 RMK A01 T02630034  RH  023%=      5-min Rain = 0
KGU1 112134Z 11005KT 26/03 A3028 RMK A01 T02630034  RH  023%=      5-min Rain = 0
KGU1 112135Z 12004KT 26/04 A3028 RMK A01 T02640040  RH  024%=      5-min Rain = 0
KGU1 112136Z 11005KT 27/04 A3028 RMK A01 T02660040  RH  024%=      5-min Rain = 0
KGU1 112137Z 12008KT 27/03 A3028 RMK A01 T02680033  RH  022%=      5-min Rain = 0
KGU1 112138Z 13008KT 27/04 A3028 RMK A01 T02670035  RH  023%=      5-min Rain = 0
KGU1 112139Z 12008KT 27/04 A3028 RMK A01 T02670036  RH  023%=      5-min Rain = 0
KGU1 112140Z 07005KT 27/03 A3028 RMK A01 T02670033  RH  022%=      5-min Rain = 0
KGU1 112141Z 08006KT 27/04 A3028 RMK A01 T02660035  RH  023%=      5-min Rain = 0
KGU1 112142Z 07008KT 27/03 A3028 RMK A01 T02670034  RH  023%=      5-min Rain = 0
KGU1 112143Z 05010KT 27/03 A3028 RMK A01 T02660028  RH  022%=      5-min Rain = 0
KGU1 112144Z 06006KT 26/03 A3028 RMK A01 T02630031  RH  023%=      5-min Rain = 0
KGU1 112145Z 08002KT 26/03 A3028 RMK A01 T02640034  RH  023%=      5-min Rain = 0
KGU1 112146Z 10006KT 27/04 A3028 RMK A01 T02660035  RH  023%=      5-min Rain = 0
KGU1 112147Z 10008KT 27/03 A3028 RMK A01 T02680033  RH  022%=      5-min Rain = 0
KGU1 112148Z 10008KT 27/03 A3028 RMK A01 T02680032  RH  022%=      5-min Rain = 0
KGU1 112149Z 10009KT 27/03 A3028 RMK A01 T02670033  RH  022%=      5-min Rain = 0
KGU1 112150Z 10009KT 27/03 A3028 RMK A01 T02670032  RH  022%=      5-min Rain = 0
KGU1 112151Z 08008KT 27/04 A3028 RMK A01 T02670035  RH  023%=      5-min Rain = 0
KGU1 112152Z 10007KT 27/03 A3028 RMK A01 T02690031  RH  022%=      5-min Rain = 0
KGU1 112153Z 10006KT 27/03 A3028 RMK A01 T02680029  RH  022%=      5-min Rain = 0
KGU1 112154Z 09007KT 27/04 A3028 RMK A01 T02660035  RH  023%=      5-min Rain = 0
KGU1 112155Z 08006KT 27/03 A3028 RMK A01 T02660031  RH  022%=      5-min Rain = 0
KGU1 112156Z 11007KT 27/03 A3028 RMK A01 T02660030  RH  022%=      5-min Rain = 0
KGU1 112157Z 08007KT 27/03 A3028 RMK A01 T02660029  RH  022%=      5-min Rain = 0
KGU1 112158Z 10006KT 26/03 A3027 RMK A01 T02640027  RH  022%=      5-min Rain = 0
KGU1 112159Z 11005KT 26/03 A3027 RMK A01 T02630029  RH  022%=      5-min Rain = 0
KGU1 112200Z 11008KT 26/03 A3027 RMK A01 T02640026  RH  022%=      5-min Rain = 0
KGU1 112201Z 11009KT 27/03 A3027 RMK A01 T02650025  RH  021%=      5-min Rain = 0
KGU1 112202Z 08009KT 27/03 A3027 RMK A01 T02670029  RH  022%=      5-min Rain = 0
KGU1 112203Z 07009KT 27/03 A3027 RMK A01 T02680026  RH  021%=      5-min Rain = 0
KGU1 112204Z 08009KT 27/03 A3027 RMK A01 T02670029  RH  022%=      5-min Rain = 0
KGU1 112205Z 06008KT 27/03 A3027 RMK A01 T02670032  RH  022%=      5-min Rain = 0
KGU1 112206Z 05009KT 27/03 A3027 RMK A01 T02670030  RH  022%=      5-min Rain = 0
KGU1 112207Z 04009KT 27/03 A3027 RMK A01 T02660030  RH  022%=      5-min Rain = 0
KGU1 112208Z 04007KT 27/03 A3027 RMK A01 T02650033  RH  023%=      5-min Rain = 0
KGU1 112209Z 07005KT 27/04 A3027 RMK A01 T02650035  RH  023%=      5-min Rain = 0
KGU1 112210Z 08007KT 27/03 A3027 RMK A01 T02670033  RH  022%=      5-min Rain = 0
KGU1 112211Z 08008KT 27/03 A3027 RMK A01 T02680031  RH  022%=      5-min Rain = 0
KGU1 112212Z 06008KT 27/03 A3027 RMK A01 T02670030  RH  022%=      5-min Rain = 0
KGU1 112213Z 06007KT 27/03 A3027 RMK A01 T02650028  RH  022%=      5-min Rain = 0
KGU1 112214Z 09007KT 26/03 A3027 RMK A01 T02640029  RH  022%=      5-min Rain = 0
KGU1 112215Z 10005KT 26/03 A3027 RMK A01 T02640031  RH  022%=      5-min Rain = 0
KGU1 112216Z 10010KT 27/03 A3027 RMK A01 T02650031  RH  022%=      5-min Rain = 0
KGU1 112217Z 07008KT 27/03 A3027 RMK A01 T02660029  RH  022%=      5-min Rain = 0
KGU1 112218Z 05007KT 27/03 A3027 RMK A01 T02660027  RH  022%=      5-min Rain = 0
KGU1 112219Z 07006KT 27/03 A3027 RMK A01 T02660031  RH  022%=      5-min Rain = 0
KGU1 112220Z 10010KT 27/02 A3027 RMK A01 T02670022  RH  021%=      5-min Rain = 0
KGU1 112221Z 10007KT 27/02 A3027 RMK A01 T02650022  RH  021%=      5-min Rain = 0
KGU1 112222Z 08007KT 27/03 A3027 RMK A01 T02650025  RH  022%=      5-min Rain = 0
KGU1 112223Z 07007KT 27/03 A3027 RMK A01 T02660027  RH  022%=      5-min Rain = 0
KGU1 112224Z 08008KT 27/03 A3027 RMK A01 T02680028  RH  021%=      5-min Rain = 0
KGU1 112225Z 09009KT 27/03 A3027 RMK A01 T02680027  RH  021%=      5-min Rain = 0
KGU1 112226Z 07008G13KT 27/03 A3027 RMK A01 T02690029  RH  022%=      5-min Rain = 0
KGU1 112227Z 07009KT 27/03 A3027 RMK A01 T02690026  RH  021%=      5-min Rain = 0
KGU1 112228Z 06008KT 27/03 A3027 RMK A01 T02670026  RH  021%=      5-min Rain = 0
KGU1 112229Z 07006KT 27/02 A3027 RMK A01 T02650024  RH  021%=      5-min Rain = 0
KGU1 112230Z 08003KT 26/03 A3027 RMK A01 T02640026  RH  022%=      5-min Rain = 0
KGU1 112231Z 09009KT 26/03 A3027 RMK A01 T02640025  RH  022%=      5-min Rain = 0
KGU1 112232Z 09008KT 26/03 A3027 RMK A01 T02640026  RH  022%=      5-min Rain = 0
KGU1 112233Z 08007KT 26/03 A3027 RMK A01 T02640025  RH  022%=      5-min Rain = 0
KGU1 112234Z 08006KT 26/03 A3027 RMK A01 T02640026  RH  022%=      5-min Rain = 0
KGU1 112235Z 08007KT 26/03 A3027 RMK A01 T02640030  RH  022%=      5-min Rain = 0
KGU1 112236Z 07004KT 27/03 A3027 RMK A01 T02650026  RH  022%=      5-min Rain = 0
KGU1 112237Z 08004KT 27/03 A3027 RMK A01 T02650025  RH  021%=      5-min Rain = 0
KGU1 112238Z 09006KT 27/03 A3027 RMK A01 T02660025  RH  021%=      5-min Rain = 0
KGU1 112239Z 07004KT 26/03 A3027 RMK A01 T02640025  RH  021%=      5-min Rain = 0
KGU1 112240Z 09005G10KT 26/03 A3027 RMK A01 T02630026  RH  022%=      5-min Rain = 0
KGU1 112241Z 09008KT 26/02 A3027 RMK A01 T02620023  RH  021%=      5-min Rain = 0
KGU1 112242Z 09006KT 26/02 A3027 RMK A01 T02610022  RH  021%=      5-min Rain = 0
KGU1 112243Z 08003KT 26/02 A3027 RMK A01 T02600023  RH  022%=      5-min Rain = 0
KGU1 112244Z 11004KT 26/03 A3027 RMK A01 T02600026  RH  022%=      5-min Rain = 0
KGU1 112245Z 07004KT 26/03 A3027 RMK A01 T02610025  RH  022%=      5-min Rain = 0
KGU1 112246Z 09005KT 26/03 A3027 RMK A01 T02610027  RH  022%=      5-min Rain = 0
KGU1 112247Z 10006KT 26/03 A3027 RMK A01 T02620028  RH  022%=      5-min Rain = 0
KGU1 112248Z 05008KT 26/03 A3027 RMK A01 T02640030  RH  022%=      5-min Rain = 0
KGU1 112249Z 05008KT 26/03 A3027 RMK A01 T02640026  RH  022%=      5-min Rain = 0
KGU1 112250Z 05008KT 26/03 A3027 RMK A01 T02630028  RH  022%=      5-min Rain = 0
KGU1 112251Z 07008KT 26/03 A3027 RMK A01 T02630025  RH  022%=      5-min Rain = 0
KGU1 112252Z 05006KT 26/03 A3027 RMK A01 T02620026  RH  022%=      5-min Rain = 0
KGU1 112253Z 05005KT 26/02 A3027 RMK A01 T02610023  RH  022%=      5-min Rain = 0
KGU1 112254Z 08009KT 26/02 A3027 RMK A01 T02600024  RH  022%=      5-min Rain = 0
KGU1 112255Z 09005KT 26/02 A3027 RMK A01 T02610023  RH  022%=      5-min Rain = 0
KGU1 112256Z 10006KT 26/03 A3027 RMK A01 T02610025  RH  022%=      5-min Rain = 0
KGU1 112257Z 10006KT 26/02 A3027 RMK A01 T02610022  RH  021%=      5-min Rain = 0
KGU1 112258Z 08005KT 26/03 A3027 RMK A01 T02610027  RH  022%=      5-min Rain = 0
KGU1 112259Z 08011KT 26/03 A3027 RMK A01 T02610025  RH  022%=      5-min Rain = 0
KGU1 112300Z 08009KT 26/02 A3027 RMK A01 T02600024  RH  022%=      5-min Rain = 0
KGU1 112301Z 08009KT 26/03 A3027 RMK A01 T02590025  RH  022%=      5-min Rain = 0
KGU1 112302Z 06008KT 26/03 A3027 RMK A01 T02590028  RH  023%=      5-min Rain = 0
KGU1 112303Z 07009KT 26/03 A3027 RMK A01 T02600027  RH  022%=      5-min Rain = 0
KGU1 112304Z 06009KT 26/03 A3027 RMK A01 T02590028  RH  023%=      5-min Rain = 0
KGU1 112305Z 05007KT 26/03 A3027 RMK A01 T02590028  RH  023%=      5-min Rain = 0
KGU1 112306Z 04007KT 26/03 A3027 RMK A01 T02590029  RH  023%=      5-min Rain = 0
KGU1 112307Z 06008KT 26/03 A3027 RMK A01 T02590026  RH  022%=      5-min Rain = 0
KGU1 112308Z 08010KT 26/03 A3027 RMK A01 T02600027  RH  022%=      5-min Rain = 0
KGU1 112309Z 10009KT 26/03 A3027 RMK A01 T02600027  RH  022%=      5-min Rain = 0
KGU1 112310Z 10007KT 26/02 A3027 RMK A01 T02610022  RH  021%=      5-min Rain = 0
KGU1 112311Z 08007KT 26/03 A3027 RMK A01 T02610025  RH  022%=      5-min Rain = 0
KGU1 112312Z 08007KT 26/03 A3027 RMK A01 T02610027  RH  022%=      5-min Rain = 0
KGU1 112313Z 07006KT 26/03 A3027 RMK A01 T02610026  RH  022%=      5-min Rain = 0
KGU1 112314Z 06006KT 26/03 A3027 RMK A01 T02610029  RH  023%=      5-min Rain = 0
KGU1 112315Z 07006KT 26/03 A3027 RMK A01 T02610032  RH  023%=      5-min Rain = 0
KGU1 112316Z 07009KT 26/03 A3027 RMK A01 T02610026  RH  022%=      5-min Rain = 0
KGU1 112317Z 08006KT 26/03 A3027 RMK A01 T02610027  RH  022%=      5-min Rain = 0
KGU1 112318Z 07007KT 26/03 A3027 RMK A01 T02610030  RH  023%=      5-min Rain = 0
KGU1 112319Z 07007KT 26/03 A3027 RMK A01 T02620030  RH  023%=      5-min Rain = 0
KGU1 112320Z 07009KT 26/03 A3027 RMK A01 T02620028  RH  022%=      5-min Rain = 0
KGU1 112321Z 08010KT 26/03 A3027 RMK A01 T02610026  RH  022%=      5-min Rain = 0
KGU1 112322Z 08008KT 26/03 A3027 RMK A01 T02600029  RH  023%=      5-min Rain = 0
KGU1 112323Z 07007KT 26/03 A3027 RMK A01 T02590026  RH  022%=      5-min Rain = 0
KGU1 112324Z 08006KT 26/03 A3027 RMK A01 T02590026  RH  022%=      5-min Rain = 0
KGU1 112325Z 08008KT 26/03 A3027 RMK A01 T02590029  RH  023%=      5-min Rain = 0
KGU1 112326Z 10010KT 26/03 A3027 RMK A01 T02590028  RH  023%=      5-min Rain = 0
KGU1 112327Z 08008KT 26/03 A3027 RMK A01 T02600028  RH  022%=      5-min Rain = 0
KGU1 112328Z 08007KT 26/03 A3027 RMK A01 T02590026  RH  022%=      5-min Rain = 0
KGU1 112329Z 09008KT 26/03 A3027 RMK A01 T02590027  RH  022%=      5-min Rain = 0
KGU1 112330Z 09005KT 26/03 A3027 RMK A01 T02590027  RH  023%=      5-min Rain = 0
KGU1 112331Z 08006KT 26/03 A3027 RMK A01 T02590026  RH  022%=      5-min Rain = 0
KGU1 112332Z 06007G12KT 26/03 A3027 RMK A01 T02580027  RH  023%=      5-min Rain = 0
KGU1 112333Z 09008KT 26/03 A3026 RMK A01 T02580029  RH  023%=      5-min Rain = 0
KGU1 112334Z 08009KT 26/03 A3027 RMK A01 T02590029  RH  023%=      5-min Rain = 0
KGU1 112335Z 08008KT 26/03 A3027 RMK A01 T02580026  RH  023%=      5-min Rain = 0
KGU1 112336Z 09010KT 26/03 A3027 RMK A01 T02580028  RH  023%=      5-min Rain = 0
KGU1 112337Z 09009KT 26/03 A3026 RMK A01 T02570027  RH  023%=      5-min Rain = 0
KGU1 112338Z 10009KT 26/03 A3027 RMK A01 T02570029  RH  023%=      5-min Rain = 0
KGU1 112339Z 09008KT 26/03 A3026 RMK A01 T02570030  RH  023%=      5-min Rain = 0
KGU1 112340Z 08009KT 26/03 A3027 RMK A01 T02560027  RH  023%=      5-min Rain = 0
KGU1 112341Z 08006KT 26/03 A3027 RMK A01 T02560026  RH  023%=      5-min Rain = 0
KGU1 112342Z 09006KT 26/03 A3027 RMK A01 T02560029  RH  023%=      5-min Rain = 0
KGU1 112343Z 09007KT 26/03 A3027 RMK A01 T02560028  RH  023%=      5-min Rain = 0
KGU1 112344Z 08005KT 26/03 A3027 RMK A01 T02560028  RH  023%=      5-min Rain = 0
KGU1 112345Z 06004KT 26/03 A3027 RMK A01 T02550028  RH  023%=      5-min Rain = 0
KGU1 112346Z 07005KT 26/03 A3027 RMK A01 T02560029  RH  023%=      5-min Rain = 0
KGU1 112347Z 09008KT 26/03 A3027 RMK A01 T02560030  RH  023%=      5-min Rain = 0
KGU1 112348Z 08008KT 26/03 A3027 RMK A01 T02560028  RH  023%=      5-min Rain = 0
KGU1 112349Z 07008KT 26/03 A3026 RMK A01 T02550029  RH  023%=      5-min Rain = 0
KGU1 112350Z 09006KT 26/03 A3027 RMK A01 T02550031  RH  024%=      5-min Rain = 0
KGU1 112351Z 07007KT 26/03 A3026 RMK A01 T02550028  RH  023%=      5-min Rain = 0
KGU1 112352Z 08006KT 26/03 A3026 RMK A01 T02550026  RH  023%=      5-min Rain = 0
KGU1 112353Z 09007KT 25/03 A3026 RMK A01 T02540028  RH  023%=      5-min Rain = 0
KGU1 112354Z 08006KT 25/03 A3027 RMK A01 T02540032  RH  024%=      5-min Rain = 0
KGU1 112355Z 08007KT 26/03 A3027 RMK A01 T02550031  RH  024%=      5-min Rain = 0
KGU1 112356Z 09008KT 26/03 A3026 RMK A01 T02550027  RH  023%=      5-min Rain = 0
KGU1 112357Z 09007KT 25/03 A3026 RMK A01 T02530027  RH  023%=      5-min Rain = 0
KGU1 112358Z 09008KT 25/03 A3027 RMK A01 T02520027  RH  023%=      5-min Rain = 0
KGU1 112359Z 08006KT 25/03 A3027 RMK A01 T02520028  RH  024%=      5-min Rain = 0
KGU1 120000Z 09010KT 25/03 A3026 RMK A01 T02520027  RH  023%=      5-min Rain = 0
KGU1 120001Z 09008KT 25/03 A3026 RMK A01 T02520029  RH  024%=      5-min Rain = 0
KGU1 120002Z 08007KT 25/03 A3026 RMK A01 T02520030  RH  024%=      5-min Rain = 0
KGU1 120003Z 07007KT 25/03 A3026 RMK A01 T02510028  RH  024%=      5-min Rain = 0
KGU1 120004Z 08008KT 25/03 A3026 RMK A01 T02510029  RH  024%=      5-min Rain = 0
KGU1 120005Z 08008KT 25/03 A3026 RMK A01 T02500028  RH  024%=      5-min Rain = 0
KGU1 120006Z 07008KT 25/03 A3027 RMK A01 T02500029  RH  024%=      5-min Rain = 0
KGU1 120007Z 07008KT 25/03 A3027 RMK A01 T02490027  RH  024%=      5-min Rain = 0
KGU1 120008Z 07008KT 25/03 A3027 RMK A01 T02490028  RH  024%=      5-min Rain = 0
KGU1 120009Z 09009KT 25/03 A3027 RMK A01 T02480027  RH  024%=      5-min Rain = 0
KGU1 120010Z 08009KT 25/03 A3027 RMK A01 T02480028  RH  024%=      5-min Rain = 0
KGU1 120011Z 08009KT 25/03 A3027 RMK A01 T02480028  RH  024%=      5-min Rain = 0
KGU1 120012Z 08008KT 25/03 A3027 RMK A01 T02470028  RH  024%=      5-min Rain = 0
KGU1 120013Z 08007KT 25/03 A3027 RMK A01 T02470029  RH  025%=      5-min Rain = 0
KGU1 120014Z 07008KT 25/03 A3027 RMK A01 T02460028  RH  024%=      5-min Rain = 0
KGU1 120015Z 08008KT 25/03 A3027 RMK A01 T02460029  RH  025%=      5-min Rain = 0
KGU1 120016Z 08008KT 25/03 A3027 RMK A01 T02450028  RH  024%=      5-min Rain = 0
KGU1 120017Z 07007KT 24/03 A3027 RMK A01 T02440029  RH  025%=      5-min Rain = 0
KGU1 120018Z 08008KT 24/03 A3027 RMK A01 T02430028  RH  025%=      5-min Rain = 0
KGU1 120019Z 09008KT 24/03 A3027 RMK A01 T02420027  RH  025%=      5-min Rain = 0
KGU1 120020Z 08006KT 24/03 A3027 RMK A01 T02410028  RH  025%=      5-min Rain = 0
KGU1 120021Z 09008KT 24/03 A3027 RMK A01 T02400026  RH  025%=      5-min Rain = 0
KGU1 120022Z 08009KT 24/03 A3027 RMK A01 T02400025  RH  025%=      5-min Rain = 0
KGU1 120023Z 09008KT 24/02 A3027 RMK A01 T02390024  RH  025%=      5-min Rain = 0
KGU1 120024Z 09007KT 24/03 A3027 RMK A01 T02390026  RH  025%=      5-min Rain = 0
KGU1 120025Z 08007KT 24/03 A3027 RMK A01 T02380026  RH  025%=      5-min Rain = 0
KGU1 120026Z 08005KT 24/03 A3027 RMK A01 T02380027  RH  025%=      5-min Rain = 0
KGU1 120027Z 08006KT 24/03 A3027 RMK A01 T02380026  RH  025%=      5-min Rain = 0
KGU1 120028Z 08005KT 24/03 A3027 RMK A01 T02370028  RH  026%=      5-min Rain = 0
KGU1 120029Z 08005KT 24/03 A3027 RMK A01 T02370028  RH  026%=      5-min Rain = 0
KGU1 120030Z 08006KT 24/03 A3027 RMK A01 T02360028  RH  026%=      5-min Rain = 0
KGU1 120031Z 08007KT 24/03 A3027 RMK A01 T02350027  RH  026%=      5-min Rain = 0
KGU1 120032Z 08006KT 24/03 A3027 RMK A01 T02350028  RH  026%=      5-min Rain = 0
KGU1 120033Z 07004KT 24/03 A3027 RMK A01 T02350028  RH  026%=      5-min Rain = 0
KGU1 120034Z 07004KT 23/03 A3027 RMK A01 T02340029  RH  026%=      5-min Rain = 0
KGU1 120035Z 07004KT 23/03 A3027 RMK A01 T02330030  RH  027%=      5-min Rain = 0
KGU1 120036Z 07005KT 23/03 A3027 RMK A01 T02330030  RH  027%=      5-min Rain = 0
KGU1 120037Z 07005KT 23/03 A3027 RMK A01 T02320030  RH  027%=      5-min Rain = 0
KGU1 120038Z 07005KT 23/03 A3027 RMK A01 T02310030  RH  027%=      5-min Rain = 0
KGU1 120039Z 08005KT 23/03 A3027 RMK A01 T02310030  RH  027%=      5-min Rain = 0
KGU1 120040Z 08005KT 23/03 A3027 RMK A01 T02300030  RH  027%=      5-min Rain = 0
KGU1 120041Z 08004KT 23/03 A3027 RMK A01 T02300030  RH  027%=      5-min Rain = 0
KGU1 120042Z 08004KT 23/03 A3027 RMK A01 T02290030  RH  027%=      5-min Rain = 0
KGU1 120043Z 08005KT 23/03 A3027 RMK A01 T02290030  RH  027%=      5-min Rain = 0
KGU1 120044Z 08005KT 23/03 A3027 RMK A01 T02290029  RH  027%=      5-min Rain = 0
KGU1 120045Z 08006KT 23/03 A3028 RMK A01 T02290029  RH  027%=      5-min Rain = 0
KGU1 120046Z 07005KT 23/03 A3028 RMK A01 T02280030  RH  028%=      5-min Rain = 0
KGU1 120047Z 06004KT 23/03 A3028 RMK A01 T02280030  RH  028%=      5-min Rain = 0
KGU1 120048Z 06004KT 23/03 A3028 RMK A01 T02270030  RH  028%=      5-min Rain = 0
KGU1 120049Z 04003KT 23/03 A3028 RMK A01 T02260032  RH  028%=      5-min Rain = 0
KGU1 120050Z 03003KT 22/03 A3028 RMK A01 T02240034  RH  029%=      5-min Rain = 0
KGU1 120051Z 04003KT 22/04 A3028 RMK A01 T02230035  RH  030%=      5-min Rain = 0
KGU1 120052Z 03002KT 22/04 A3028 RMK A01 T02220036  RH  030%=      5-min Rain = 0
KGU1 120053Z 03002KT 22/04 A3028 RMK A01 T02210037  RH  030%=      5-min Rain = 0
KGU1 120054Z 03003KT 22/04 A3028 RMK A01 T02190037  RH  031%=      5-min Rain = 0
KGU1 120055Z 02003KT 22/04 A3028 RMK A01 T02180037  RH  031%=      5-min Rain = 0
KGU1 120056Z 02003KT 22/04 A3028 RMK A01 T02170037  RH  031%=      5-min Rain = 0
KGU1 120057Z 02003KT 22/04 A3028 RMK A01 T02160038  RH  031%=      5-min Rain = 0
KGU1 120058Z 02003KT 22/04 A3028 RMK A01 T02150038  RH  032%=      5-min Rain = 0
KGU1 120059Z 02004KT 21/04 A3028 RMK A01 T02130037  RH  032%=      5-min Rain = 0
KGU1 120100Z 02004KT 21/04 A3028 RMK A01 T02130037  RH  032%=      5-min Rain = 0
KGU1 120101Z 03004KT 21/04 A3028 RMK A01 T02110036  RH  032%=      5-min Rain = 0
KGU1 120102Z 03002KT 21/04 A3027 RMK A01 T02110035  RH  032%=      5-min Rain = 0
KGU1 120103Z 02003KT 21/04 A3028 RMK A01 T02110035  RH  032%=      5-min Rain = 0
KGU1 120104Z 02004KT 21/04 A3028 RMK A01 T02110035  RH  032%=      5-min Rain = 0
KGU1 120105Z 01004KT 21/04 A3028 RMK A01 T02110035  RH  032%=      5-min Rain = 0
KGU1 120106Z 02005KT 21/04 A3028 RMK A01 T02100035  RH  032%=      5-min Rain = 0
KGU1 120107Z 02005KT 21/04 A3028 RMK A01 T02100035  RH  032%=      5-min Rain = 0
KGU1 120108Z 02005KT 21/04 A3028 RMK A01 T02100035  RH  032%=      5-min Rain = 0
KGU1 120109Z 02005KT 21/03 A3028 RMK A01 T02100034  RH  032%=      5-min Rain = 0
KGU1 120110Z 02005KT 21/03 A3028 RMK A01 T02100034  RH  032%=      5-min Rain = 0
KGU1 120111Z 02004KT 21/03 A3028 RMK A01 T02110034  RH  032%=      5-min Rain = 0
KGU1 120112Z 02004KT 21/03 A3028 RMK A01 T02110034  RH  032%=      5-min Rain = 0
KGU1 120113Z 01005KT 21/03 A3027 RMK A01 T02110033  RH  031%=      5-min Rain = 0
KGU1 120114Z 02004KT 21/03 A3027 RMK A01 T02110034  RH  031%=      5-min Rain = 0
KGU1 120115Z 03004KT 21/03 A3027 RMK A01 T02110034  RH  032%=      5-min Rain = 0
KGU1 120116Z 02005KT 21/03 A3027 RMK A01 T02100033  RH  031%=      5-min Rain = 0
KGU1 120117Z 02005KT 21/03 A3027 RMK A01 T02100033  RH  032%=      5-min Rain = 0
KGU1 120118Z 02004KT 21/03 A3027 RMK A01 T02100034  RH  032%=      5-min Rain = 0
KGU1 120119Z 02004KT 21/03 A3027 RMK A01 T02090034  RH  032%=      5-min Rain = 0
KGU1 120120Z 01004KT 21/03 A3027 RMK A01 T02090034  RH  032%=      5-min Rain = 0
KGU1 120121Z 02005KT 21/03 A3027 RMK A01 T02080034  RH  032%=      5-min Rain = 0
KGU1 120122Z 02005KT 21/03 A3027 RMK A01 T02080034  RH  032%=      5-min Rain = 0
KGU1 120123Z 02005KT 21/03 A3027 RMK A01 T02080033  RH  032%=      5-min Rain = 0
KGU1 120124Z 02004KT 21/03 A3028 RMK A01 T02080033  RH  032%=      5-min Rain = 0
KGU1 120125Z 01004KT 21/03 A3028 RMK A01 T02070033  RH  032%=      5-min Rain = 0
KGU1 120126Z 01004KT 21/03 A3028 RMK A01 T02070033  RH  032%=      5-min Rain = 0
KGU1 120127Z 00005KT 21/03 A3028 RMK A01 T02070034  RH  032%=      5-min Rain = 0
KGU1 120128Z 01004KT 21/03 A3028 RMK A01 T02060034  RH  032%=      5-min Rain = 0
KGU1 120129Z 01005KT 21/03 A3028 RMK A01 T02050033  RH  033%=      5-min Rain = 0
KGU1 120130Z 01005KT 21/03 A3028 RMK A01 T02050033  RH  032%=      5-min Rain = 0
KGU1 120131Z 01004KT 21/03 A3028 RMK A01 T02050033  RH  032%=      5-min Rain = 0
KGU1 120132Z 01005KT 21/03 A3028 RMK A01 T02050033  RH  032%=      5-min Rain = 0
KGU1 120133Z 01005KT 21/03 A3028 RMK A01 T02050033  RH  033%=      5-min Rain = 0
KGU1 120134Z 02005KT 21/03 A3028 RMK A01 T02050033  RH  033%=      5-min Rain = 0
KGU1 120135Z 01007KT 21/03 A3028 RMK A01 T02050033  RH  033%=      5-min Rain = 0
KGU1 120136Z 02006KT 21/03 A3028 RMK A01 T02050033  RH  032%=      5-min Rain = 0
KGU1 120137Z 02004KT 21/03 A3028 RMK A01 T02050033  RH  033%=      5-min Rain = 0
KGU1 120138Z 01004KT 21/03 A3028 RMK A01 T02050033  RH  032%=      5-min Rain = 0
KGU1 120139Z 01004KT 21/03 A3028 RMK A01 T02050032  RH  032%=      5-min Rain = 0
KGU1 120140Z 03005KT 21/03 A3028 RMK A01 T02050033  RH  033%=      5-min Rain = 0
KGU1 120141Z 02004KT 20/03 A3028 RMK A01 T02040032  RH  032%=      5-min Rain = 0
KGU1 120142Z 02005KT 20/03 A3028 RMK A01 T02040032  RH  033%=      5-min Rain = 0
KGU1 120143Z 01005KT 20/03 A3028 RMK A01 T02040032  RH  032%=      5-min Rain = 0
KGU1 120144Z 01005KT 20/03 A3028 RMK A01 T02040032  RH  033%=      5-min Rain = 0
KGU1 120145Z 01005KT 20/03 A3028 RMK A01 T02040032  RH  032%=      5-min Rain = 0
KGU1 120146Z 01006KT 21/03 A3028 RMK A01 T02050032  RH  032%=      5-min Rain = 0
KGU1 120147Z 01006KT 20/03 A3028 RMK A01 T02040032  RH  032%=      5-min Rain = 0
KGU1 120148Z 01005KT 21/03 A3028 RMK A01 T02050032  RH  032%=      5-min Rain = 0
KGU1 120149Z 01006KT 21/03 A3028 RMK A01 T02050032  RH  032%=      5-min Rain = 0
KGU1 120150Z 01005KT 21/03 A3028 RMK A01 T02050032  RH  032%=      5-min Rain = 0
KGU1 120151Z 01004KT 20/03 A3028 RMK A01 T02040032  RH  032%=      5-min Rain = 0
KGU1 120152Z 01005KT 20/03 A3028 RMK A01 T02040032  RH  032%=      5-min Rain = 0
KGU1 120153Z 02006KT 21/03 A3028 RMK A01 T02050032  RH  032%=      5-min Rain = 0
KGU1 120154Z 02006KT 21/03 A3028 RMK A01 T02050032  RH  032%=      5-min Rain = 0
KGU1 120155Z 01005KT 21/03 A3028 RMK A01 T02050032  RH  032%=      5-min Rain = 0
KGU1 120156Z 01005KT 21/03 A3028 RMK A01 T02050032  RH  032%=      5-min Rain = 0
KGU1 120157Z 01006KT 21/03 A3028 RMK A01 T02050032  RH  032%=      5-min Rain = 0
KGU1 120158Z 00005KT 21/03 A3028 RMK A01 T02050032  RH  032%=      5-min Rain = 0
KGU1 120159Z 00005KT 20/03 A3028 RMK A01 T02040033  RH  033%=      5-min Rain = 0
KGU1 120200Z 01005KT 20/03 A3028 RMK A01 T02040033  RH  033%=      5-min Rain = 0
KGU1 120201Z 01005KT 20/03 A3028 RMK A01 T02030032  RH  033%=      5-min Rain = 0
KGU1 120202Z 01005KT 20/03 A3028 RMK A01 T02030032  RH  033%=      5-min Rain = 0
KGU1 120203Z 01004KT 20/03 A3028 RMK A01 T02030033  RH  033%=      5-min Rain = 0
KGU1 120204Z 01005KT 20/03 A3028 RMK A01 T02030033  RH  033%=      5-min Rain = 0
KGU1 120205Z 00005KT 20/03 A3028 RMK A01 T02030033  RH  033%=      5-min Rain = 0
KGU1 120206Z 01005KT 20/03 A3028 RMK A01 T02030033  RH  033%=      5-min Rain = 0
KGU1 120207Z 01005KT 20/03 A3028 RMK A01 T02030033  RH  033%=      5-min Rain = 0
KGU1 120208Z 00006KT 20/03 A3029 RMK A01 T02020033  RH  033%=      5-min Rain = 0
KGU1 120209Z 01005KT 20/03 A3029 RMK A01 T02030033  RH  033%=      5-min Rain = 0
KGU1 120210Z 01005KT 20/03 A3029 RMK A01 T02030033  RH  033%=      5-min Rain = 0
KGU1 120211Z 01006KT 20/03 A3029 RMK A01 T02030033  RH  033%=      5-min Rain = 0
KGU1 120212Z 01005KT 20/03 A3029 RMK A01 T02030034  RH  033%=      5-min Rain = 0
KGU1 120213Z 01006KT 20/03 A3029 RMK A01 T02030033  RH  033%=      5-min Rain = 0
KGU1 120214Z 01005KT 20/03 A3029 RMK A01 T02040033  RH  033%=      5-min Rain = 0
KGU1 120215Z 01004KT 21/03 A3029 RMK A01 T02050033  RH  033%=      5-min Rain = 0
KGU1 120216Z 01004KT 21/03 A3029 RMK A01 T02050034  RH  033%=      5-min Rain = 0
KGU1 120217Z 01004KT 20/03 A3029 RMK A01 T02040034  RH  033%=      5-min Rain = 0
KGU1 120218Z 01005KT 20/03 A3029 RMK A01 T02040034  RH  033%=      5-min Rain = 0
KGU1 120219Z 02004KT 20/03 A3029 RMK A01 T02030034  RH  033%=      5-min Rain = 0
KGU1 120220Z 01004KT 20/03 A3029 RMK A01 T02030034  RH  033%=      5-min Rain = 0
KGU1 120221Z 01004KT 20/03 A3029 RMK A01 T02030034  RH  033%=      5-min Rain = 0
KGU1 120222Z 00004KT 20/03 A3029 RMK A01 T02030034  RH  033%=      5-min Rain = 0
KGU1 120223Z 00004KT 20/03 A3029 RMK A01 T02020034  RH  033%=      5-min Rain = 0
KGU1 120224Z 01005KT 20/03 A3029 RMK A01 T02020034  RH  033%=      5-min Rain = 0
KGU1 120225Z 01005KT 20/04 A3029 RMK A01 T02020035  RH  033%=      5-min Rain = 0
KGU1 120226Z 01006KT 20/03 A3029 RMK A01 T02020034  RH  033%=      5-min Rain = 0
KGU1 120227Z 02005KT 20/04 A3029 RMK A01 T02020035  RH  034%=      5-min Rain = 0
KGU1 120228Z 01004KT 20/03 A3029 RMK A01 T02020034  RH  033%=      5-min Rain = 0
KGU1 120229Z 00004KT 20/04 A3029 RMK A01 T02020035  RH  034%=      5-min Rain = 0
KGU1 120230Z 00004KT 20/03 A3029 RMK A01 T02010034  RH  034%=      5-min Rain = 0
KGU1 120231Z 00003KT 20/04 A3029 RMK A01 T02020035  RH  034%=      5-min Rain = 0
KGU1 120232Z 01004KT 20/04 A3029 RMK A01 T02010035  RH  034%=      5-min Rain = 0
KGU1 120233Z 01004KT 20/04 A3029 RMK A01 T02010035  RH  034%=      5-min Rain = 0
KGU1 120234Z 01005KT 20/04 A3029 RMK A01 T02000035  RH  034%=      5-min Rain = 0
KGU1 120235Z 01005KT 20/04 A3029 RMK A01 T02000035  RH  034%=      5-min Rain = 0
KGU1 120236Z 01004KT 20/04 A3029 RMK A01 T02010035  RH  034%=      5-min Rain = 0
KGU1 120237Z 00004KT 20/04 A3029 RMK A01 T02010035  RH  034%=      5-min Rain = 0
KGU1 120238Z 00004KT 20/04 A3029 RMK A01 T02010035  RH  034%=      5-min Rain = 0
KGU1 120239Z 35004KT 20/04 A3029 RMK A01 T02000036  RH  034%=      5-min Rain = 0
KGU1 120240Z 35005KT 20/04 A3029 RMK A01 T01990036  RH  034%=      5-min Rain = 0
KGU1 120241Z 35005KT 20/04 A3029 RMK A01 T01990037  RH  035%=      5-min Rain = 0
KGU1 120242Z 36005KT 20/04 A3029 RMK A01 T01980037  RH  035%=      5-min Rain = 0
KGU1 120243Z 36004KT 20/04 A3029 RMK A01 T01980036  RH  035%=      5-min Rain = 0
KGU1 120244Z 35005KT 20/04 A3029 RMK A01 T01990036  RH  035%=      5-min Rain = 0
KGU1 120245Z 36004KT 20/04 A3029 RMK A01 T01980036  RH  035%=      5-min Rain = 0
KGU1 120246Z 35004KT 20/04 A3029 RMK A01 T01980037  RH  035%=      5-min Rain = 0
KGU1 120247Z 36005KT 20/04 A3029 RMK A01 T01980037  RH  035%=      5-min Rain = 0
KGU1 120248Z 36005KT 20/04 A3029 RMK A01 T01980037  RH  035%=      5-min Rain = 0
KGU1 120249Z 00005KT 20/04 A3029 RMK A01 T01980037  RH  035%=      5-min Rain = 0
KGU1 120250Z 35005KT 20/04 A3029 RMK A01 T01970037  RH  035%=      5-min Rain = 0
KGU1 120251Z 35004KT 20/04 A3029 RMK A01 T01970037  RH  035%=      5-min Rain = 0
KGU1 120252Z 35004KT 20/04 A3029 RMK A01 T01970037  RH  035%=      5-min Rain = 0
KGU1 120253Z 35004KT 20/04 A3029 RMK A01 T01970037  RH  035%=      5-min Rain = 0
KGU1 120254Z 34004KT 20/04 A3029 RMK A01 T01960038  RH  036%=      5-min Rain = 0
KGU1 120255Z 35004KT 20/04 A3029 RMK A01 T01950038  RH  036%=      5-min Rain = 0
KGU1 120256Z 35004KT 19/04 A3029 RMK A01 T01940039  RH  036%=      5-min Rain = 0
KGU1 120257Z 01004KT 19/04 A3029 RMK A01 T01940038  RH  036%=      5-min Rain = 0
KGU1 120258Z 36003KT 20/04 A3029 RMK A01 T01950037  RH  036%=      5-min Rain = 0
KGU1 120259Z 35003KT 20/04 A3029 RMK A01 T01950037  RH  036%=      5-min Rain = 0
KGU1 120300Z 35004KT 20/04 A3029 RMK A01 T01950038  RH  036%=      5-min Rain = 0
KGU1 120301Z 36004KT 20/04 A3029 RMK A01 T01950038  RH  036%=      5-min Rain = 0
KGU1 120302Z 35004KT 20/04 A3029 RMK A01 T01950038  RH  036%=      5-min Rain = 0
KGU1 120303Z 35004KT 19/04 A3029 RMK A01 T01940038  RH  036%=      5-min Rain = 0
KGU1 120304Z 33004KT 20/04 A3029 RMK A01 T01950038  RH  036%=      5-min Rain = 0
KGU1 120305Z 34004KT 20/04 A3029 RMK A01 T01950038  RH  036%=      5-min Rain = 0
KGU1 120306Z 34004KT 19/04 A3029 RMK A01 T01930040  RH  037%=      5-min Rain = 0
KGU1 120307Z 35004KT 19/04 A3029 RMK A01 T01910040  RH  037%=      5-min Rain = 0
KGU1 120308Z 35004KT 19/04 A3029 RMK A01 T01910040  RH  037%=      5-min Rain = 0
KGU1 120309Z 35004KT 19/04 A3029 RMK A01 T01910040  RH  037%=      5-min Rain = 0
KGU1 120310Z 35005KT 19/04 A3029 RMK A01 T01900040  RH  038%=      5-min Rain = 0
KGU1 120311Z 35005KT 19/04 A3029 RMK A01 T01890039  RH  038%=      5-min Rain = 0
KGU1 120312Z 34004KT 19/04 A3029 RMK A01 T01900040  RH  037%=      5-min Rain = 0
KGU1 120313Z 34004KT 19/04 A3029 RMK A01 T01890040  RH  038%=      5-min Rain = 0
KGU1 120314Z 33005KT 19/04 A303 RMK A01 T01880041  RH  038%=      5-min Rain = 0
KGU1 120315Z 33004KT 19/04 A303 RMK A01 T01870042  RH  039%=      5-min Rain = 0
KGU1 120316Z 32003KT 19/04 A303 RMK A01 T01850042  RH  039%=      5-min Rain = 0
KGU1 120317Z 33003KT 19/04 A303 RMK A01 T01850042  RH  039%=      5-min Rain = 0
KGU1 120318Z 34003KT 19/04 A303 RMK A01 T01850041  RH  039%=      5-min Rain = 0
KGU1 120319Z 33003KT 19/04 A303 RMK A01 T01850041  RH  039%=      5-min Rain = 0
KGU1 120320Z 33004KT 19/04 A303 RMK A01 T01860041  RH  039%=      5-min Rain = 0
KGU1 120321Z 32004KT 19/04 A303 RMK A01 T01870041  RH  038%=      5-min Rain = 0
KGU1 120322Z 32004KT 19/04 A303 RMK A01 T01860041  RH  039%=      5-min Rain = 0
KGU1 120323Z 32004KT 19/04 A303 RMK A01 T01850042  RH  039%=      5-min Rain = 0
KGU1 120324Z 33004KT 19/04 A303 RMK A01 T01860040  RH  039%=      5-min Rain = 0
KGU1 120325Z 32004KT 19/04 A303 RMK A01 T01870041  RH  038%=      5-min Rain = 0
KGU1 120326Z 31004KT 19/04 A303 RMK A01 T01880039  RH  038%=      5-min Rain = 0
KGU1 120327Z 30004KT 19/04 A303 RMK A01 T01890039  RH  037%=      5-min Rain = 0
KGU1 120328Z 29005KT 19/04 A303 RMK A01 T01900039  RH  037%=      5-min Rain = 0
KGU1 120329Z 30005KT 19/04 A303 RMK A01 T01900040  RH  038%=      5-min Rain = 0
KGU1 120330Z 31004KT 19/04 A303 RMK A01 T01890040  RH  038%=      5-min Rain = 0
KGU1 120331Z 31005KT 19/04 A303 RMK A01 T01890040  RH  038%=      5-min Rain = 0
KGU1 120332Z 32005KT 19/04 A3029 RMK A01 T01880041  RH  038%=      5-min Rain = 0
KGU1 120333Z 32004KT 19/04 A3029 RMK A01 T01870042  RH  039%=      5-min Rain = 0
KGU1 120334Z 32004KT 19/04 A3029 RMK A01 T01860042  RH  039%=      5-min Rain = 0
KGU1 120335Z 32005KT 19/04 A3029 RMK A01 T01850043  RH  039%=      5-min Rain = 0
KGU1 120336Z 33004KT 18/04 A3029 RMK A01 T01840042  RH  040%=      5-min Rain = 0
KGU1 120337Z 33004KT 18/04 A3029 RMK A01 T01830042  RH  040%=      5-min Rain = 0
KGU1 120338Z 31004KT 18/04 A3029 RMK A01 T01830042  RH  039%=      5-min Rain = 0
KGU1 120339Z 34004KT 18/04 A3029 RMK A01 T01840042  RH  039%=      5-min Rain = 0
KGU1 120340Z 32004KT 18/04 A3029 RMK A01 T01840042  RH  039%=      5-min Rain = 0
KGU1 120341Z 30004KT 18/04 A3029 RMK A01 T01830042  RH  040%=      5-min Rain = 0
KGU1 120342Z 32004KT 18/04 A3029 RMK A01 T01820043  RH  040%=      5-min Rain = 0
KGU1 120343Z 32004KT 18/04 A303 RMK A01 T01810043  RH  040%=      5-min Rain = 0
KGU1 120344Z 30005KT 18/04 A3029 RMK A01 T01810043  RH  041%=      5-min Rain = 0
KGU1 120345Z 31006KT 18/04 A303 RMK A01 T01800044  RH  041%=      5-min Rain = 0
KGU1 120346Z 30006KT 18/04 A303 RMK A01 T01800043  RH  041%=      5-min Rain = 0
KGU1 120347Z 30006KT 18/04 A303 RMK A01 T01810043  RH  041%=      5-min Rain = 0
KGU1 120348Z 30006KT 18/04 A303 RMK A01 T01810043  RH  040%=      5-min Rain = 0
KGU1 120349Z 30006KT 18/04 A303 RMK A01 T01810043  RH  040%=      5-min Rain = 0
KGU1 120350Z 30006KT 18/04 A303 RMK A01 T01820043  RH  040%=      5-min Rain = 0
KGU1 120351Z 31006KT 18/04 A303 RMK A01 T01820043  RH  040%=      5-min Rain = 0
KGU1 120352Z 31007KT 18/04 A303 RMK A01 T01830042  RH  040%=      5-min Rain = 0
KGU1 120353Z 31007KT 19/04 A303 RMK A01 T01850041  RH  039%=      5-min Rain = 0
KGU1 120354Z 30007KT 19/04 A303 RMK A01 T01860040  RH  038%=      5-min Rain = 0
KGU1 120355Z 30007KT 19/04 A303 RMK A01 T01880040  RH  038%=      5-min Rain = 0
KGU1 120356Z 30008KT 19/04 A303 RMK A01 T01880040  RH  038%=      5-min Rain = 0
KGU1 120357Z 30007KT 19/04 A303 RMK A01 T01890040  RH  038%=      5-min Rain = 0
KGU1 120358Z 31005KT 19/04 A303 RMK A01 T01900040  RH  038%=      5-min Rain = 0
KGU1 120359Z 30006KT 19/04 A303 RMK A01 T01900040  RH  038%=      5-min Rain = 0
KGU1 120400Z 30006KT 19/04 A303 RMK A01 T01900040  RH  038%=      5-min Rain = 0
KGU1 120401Z 30006KT 19/04 A303 RMK A01 T01900040  RH  038%=      5-min Rain = 0
KGU1 120402Z 31006KT 19/04 A303 RMK A01 T01890040  RH  038%=      5-min Rain = 0
KGU1 120403Z 32005KT 19/04 A303 RMK A01 T01890040  RH  038%=      5-min Rain = 0
KGU1 120404Z 31005KT 19/04 A303 RMK A01 T01900040  RH  037%=      5-min Rain = 0
KGU1 120405Z 30006KT 19/04 A303 RMK A01 T01890040  RH  038%=      5-min Rain = 0
KGU1 120406Z 31005KT 19/04 A303 RMK A01 T01890040  RH  038%=      5-min Rain = 0
KGU1 120407Z 30005KT 19/04 A303 RMK A01 T01880041  RH  038%=      5-min Rain = 0
KGU1 120408Z 31005KT 19/04 A303 RMK A01 T01870041  RH  038%=      5-min Rain = 0
KGU1 120409Z 31005KT 19/04 A303 RMK A01 T01860041  RH  039%=      5-min Rain = 0
KGU1 120410Z 31006KT 19/04 A303 RMK A01 T01850042  RH  039%=      5-min Rain = 0
KGU1 120411Z 31006KT 19/04 A303 RMK A01 T01850042  RH  039%=      5-min Rain = 0
KGU1 120412Z 31006KT 18/04 A303 RMK A01 T01840042  RH  039%=      5-min Rain = 0
KGU1 120413Z 31005KT 18/04 A303 RMK A01 T01840042  RH  039%=      5-min Rain = 0
KGU1 120414Z 31006KT 18/04 A303 RMK A01 T01840041  RH  039%=      5-min Rain = 0
KGU1 120415Z 31005KT 19/04 A303 RMK A01 T01850041  RH  039%=      5-min Rain = 0
KGU1 120416Z 30005KT 19/04 A3029 RMK A01 T01850041  RH  039%=      5-min Rain = 0
KGU1 120417Z 30005KT 19/04 A3029 RMK A01 T01850042  RH  039%=      5-min Rain = 0
KGU1 120418Z 31006KT 18/04 A3029 RMK A01 T01840042  RH  039%=      5-min Rain = 0
KGU1 120419Z 31006KT 18/04 A3029 RMK A01 T01840041  RH  039%=      5-min Rain = 0
KGU1 120420Z 30006KT 19/04 A3029 RMK A01 T01850041  RH  039%=      5-min Rain = 0
KGU1 120421Z 30007KT 18/04 A3029 RMK A01 T01840041  RH  039%=      5-min Rain = 0
KGU1 120422Z 30007KT 19/04 A3029 RMK A01 T01850040  RH  039%=      5-min Rain = 0
KGU1 120423Z 30006KT 19/04 A3029 RMK A01 T01850041  RH  039%=      5-min Rain = 0
KGU1 120424Z 30006KT 19/04 A303 RMK A01 T01850041  RH  039%=      5-min Rain = 0
KGU1 120425Z 30006KT 19/04 A303 RMK A01 T01850041  RH  039%=      5-min Rain = 0
KGU1 120426Z 30007KT 19/04 A303 RMK A01 T01850040  RH  039%=      5-min Rain = 0
KGU1 120427Z 30006KT 19/04 A303 RMK A01 T01870039  RH  038%=      5-min Rain = 0
KGU1 120428Z 31005KT 19/04 A303 RMK A01 T01870040  RH  038%=      5-min Rain = 0
KGU1 120429Z 30005KT 19/04 A303 RMK A01 T01870040  RH  038%=      5-min Rain = 0
KGU1 120430Z 30005KT 19/04 A303 RMK A01 T01860040  RH  038%=      5-min Rain = 0
KGU1 120431Z 31005KT 19/04 A303 RMK A01 T01870040  RH  038%=      5-min Rain = 0
KGU1 120432Z 31004KT 19/04 A303 RMK A01 T01860040  RH  038%=      5-min Rain = 0
KGU1 120433Z 32004KT 19/04 A303 RMK A01 T01860040  RH  039%=      5-min Rain = 0
KGU1 120434Z 31004KT 19/04 A303 RMK A01 T01860040  RH  039%=      5-min Rain = 0
KGU1 120435Z 30005KT 19/04 A303 RMK A01 T01850041  RH  039%=      5-min Rain = 0
KGU1 120436Z 30006KT 18/04 A303 RMK A01 T01840041  RH  039%=      5-min Rain = 0
KGU1 120437Z 30006KT 18/04 A303 RMK A01 T01840040  RH  039%=      5-min Rain = 0
KGU1 120438Z 30006KT 18/04 A303 RMK A01 T01840040  RH  039%=      5-min Rain = 0
KGU1 120439Z 30006KT 18/04 A303 RMK A01 T01840040  RH  039%=      5-min Rain = 0
KGU1 120440Z 30005KT 18/04 A303 RMK A01 T01840040  RH  039%=      5-min Rain = 0
KGU1 120441Z 30004KT 18/04 A303 RMK A01 T01840040  RH  039%=      5-min Rain = 0
KGU1 120442Z 32003KT 18/04 A303 RMK A01 T01830040  RH  039%=      5-min Rain = 0
KGU1 120443Z 31003KT 18/04 A303 RMK A01 T01830041  RH  039%=      5-min Rain = 0
KGU1 120444Z 31003KT 18/04 A303 RMK A01 T01830040  RH  039%=      5-min Rain = 0
KGU1 120445Z 31003KT 18/04 A303 RMK A01 T01830041  RH  039%=      5-min Rain = 0
KGU1 120446Z 30004KT 18/04 A303 RMK A01 T01820041  RH  040%=      5-min Rain = 0
KGU1 120447Z 30005KT 18/04 A303 RMK A01 T01820040  RH  039%=      5-min Rain = 0
KGU1 120448Z 30005KT 18/04 A303 RMK A01 T01820041  RH  040%=      5-min Rain = 0
KGU1 120449Z 30005KT 18/04 A303 RMK A01 T01820040  RH  040%=      5-min Rain = 0
KGU1 120450Z 30006KT 18/04 A303 RMK A01 T01830039  RH  039%=      5-min Rain = 0
KGU1 120451Z 29006KT 18/04 A303 RMK A01 T01830039  RH  039%=      5-min Rain = 0
KGU1 120452Z 30005KT 18/04 A303 RMK A01 T01830039  RH  039%=      5-min Rain = 0
KGU1 120453Z 30005KT 18/04 A303 RMK A01 T01830039  RH  039%=      5-min Rain = 0
KGU1 120454Z 30005KT 18/04 A303 RMK A01 T01830038  RH  039%=      5-min Rain = 0
KGU1 120455Z 30006KT 18/04 A303 RMK A01 T01830038  RH  039%=      5-min Rain = 0
KGU1 120456Z 30005KT 18/04 A303 RMK A01 T01830038  RH  039%=      5-min Rain = 0
KGU1 120457Z 30005KT 18/04 A303 RMK A01 T01830038  RH  039%=      5-min Rain = 0
KGU1 120458Z 30005KT 18/04 A303 RMK A01 T01830038  RH  039%=      5-min Rain = 0
KGU1 120459Z 31004KT 18/04 A303 RMK A01 T01820039  RH  039%=      5-min Rain = 0

Page generated in 0.1538 seconds.